<?xml version="1.0" encoding="UTF-8" standalone="no" ?>
<gpx xmlns="http://www.topografix.com/GPX/1/1" xmlns:xsi="http://www.w3.org/2001/XMLSchema-instance" xsi:schemaLocation="http://www.topografix.com/GPX/1/1 http://www.topografix.com/GPX/1/1/gpx.xsd" version="1.1" creator="VisuGPX - https://www.visugpx.com">
  <metadata>
    <name>Mont Vial</name>
    <desc><![CDATA[Mont Vial par Revest]]></desc>
  </metadata>
  <trk>
    <name><![CDATA[10 mai 2012 08:40:44]]></name>
    <cmt><![CDATA[10 mai 2012 08:40:44]]></cmt>
    <trkseg>
      <trkpt lat="43.88154" lon="7.15676">
        <ele>875</ele>
        <time>2012-05-10T06:40:45Z</time>
      </trkpt>
      <trkpt lat="43.88158" lon="7.15673">
        <ele>869</ele>
        <time>2012-05-10T06:41:01Z</time>
      </trkpt>
      <trkpt lat="43.8816" lon="7.15667">
        <ele>866</ele>
        <time>2012-05-10T06:41:07Z</time>
      </trkpt>
      <trkpt lat="43.8816" lon="7.15659">
        <ele>863</ele>
        <time>2012-05-10T06:41:16Z</time>
      </trkpt>
      <trkpt lat="43.88158" lon="7.15653">
        <ele>863</ele>
        <time>2012-05-10T06:41:20Z</time>
      </trkpt>
      <trkpt lat="43.88158" lon="7.15647">
        <ele>863</ele>
        <time>2012-05-10T06:41:24Z</time>
      </trkpt>
      <trkpt lat="43.88159" lon="7.15639">
        <ele>863</ele>
        <time>2012-05-10T06:41:28Z</time>
      </trkpt>
      <trkpt lat="43.88158" lon="7.15632">
        <ele>864</ele>
        <time>2012-05-10T06:41:33Z</time>
      </trkpt>
      <trkpt lat="43.88156" lon="7.15626">
        <ele>865</ele>
        <time>2012-05-10T06:41:37Z</time>
      </trkpt>
      <trkpt lat="43.88152" lon="7.15622">
        <ele>865</ele>
        <time>2012-05-10T06:41:45Z</time>
      </trkpt>
      <trkpt lat="43.88152" lon="7.15615">
        <ele>866</ele>
        <time>2012-05-10T06:41:53Z</time>
      </trkpt>
      <trkpt lat="43.88152" lon="7.15608">
        <ele>867</ele>
        <time>2012-05-10T06:41:57Z</time>
      </trkpt>
      <trkpt lat="43.88152" lon="7.15601">
        <ele>870</ele>
        <time>2012-05-10T06:42:03Z</time>
      </trkpt>
      <trkpt lat="43.88157" lon="7.15588">
        <ele>872</ele>
        <time>2012-05-10T06:42:12Z</time>
      </trkpt>
      <trkpt lat="43.88164" lon="7.15576">
        <ele>872</ele>
        <time>2012-05-10T06:42:20Z</time>
      </trkpt>
      <trkpt lat="43.88166" lon="7.15569">
        <ele>872</ele>
        <time>2012-05-10T06:42:25Z</time>
      </trkpt>
      <trkpt lat="43.88166" lon="7.15562">
        <ele>872</ele>
        <time>2012-05-10T06:42:29Z</time>
      </trkpt>
      <trkpt lat="43.88168" lon="7.15556">
        <ele>872</ele>
        <time>2012-05-10T06:42:33Z</time>
      </trkpt>
      <trkpt lat="43.88167" lon="7.15541">
        <ele>870</ele>
        <time>2012-05-10T06:42:45Z</time>
      </trkpt>
      <trkpt lat="43.88171" lon="7.15536">
        <ele>870</ele>
        <time>2012-05-10T06:42:50Z</time>
      </trkpt>
      <trkpt lat="43.88175" lon="7.1553">
        <ele>869</ele>
        <time>2012-05-10T06:42:54Z</time>
      </trkpt>
      <trkpt lat="43.88175" lon="7.15523">
        <ele>869</ele>
        <time>2012-05-10T06:42:57Z</time>
      </trkpt>
      <trkpt lat="43.88174" lon="7.15509">
        <ele>870</ele>
        <time>2012-05-10T06:43:07Z</time>
      </trkpt>
      <trkpt lat="43.88179" lon="7.15507">
        <ele>873</ele>
        <time>2012-05-10T06:43:13Z</time>
      </trkpt>
      <trkpt lat="43.88189" lon="7.15509">
        <ele>873</ele>
        <time>2012-05-10T06:43:18Z</time>
      </trkpt>
      <trkpt lat="43.88187" lon="7.15512">
        <ele>874</ele>
        <time>2012-05-10T06:43:32Z</time>
      </trkpt>
      <trkpt lat="43.88183" lon="7.15508">
        <ele>874</ele>
        <time>2012-05-10T06:43:38Z</time>
      </trkpt>
      <trkpt lat="43.88181" lon="7.155">
        <ele>874</ele>
        <time>2012-05-10T06:43:53Z</time>
      </trkpt>
      <trkpt lat="43.88184" lon="7.15487">
        <ele>874</ele>
        <time>2012-05-10T06:44:05Z</time>
      </trkpt>
      <trkpt lat="43.88188" lon="7.15484">
        <ele>874</ele>
        <time>2012-05-10T06:44:10Z</time>
      </trkpt>
      <trkpt lat="43.88192" lon="7.1548">
        <ele>873</ele>
        <time>2012-05-10T06:44:17Z</time>
      </trkpt>
      <trkpt lat="43.88196" lon="7.15476">
        <ele>873</ele>
        <time>2012-05-10T06:44:24Z</time>
      </trkpt>
      <trkpt lat="43.88201" lon="7.15462">
        <ele>871</ele>
        <time>2012-05-10T06:44:33Z</time>
      </trkpt>
      <trkpt lat="43.88202" lon="7.15456">
        <ele>869</ele>
        <time>2012-05-10T06:44:41Z</time>
      </trkpt>
      <trkpt lat="43.88206" lon="7.15451">
        <ele>868</ele>
        <time>2012-05-10T06:44:49Z</time>
      </trkpt>
      <trkpt lat="43.88207" lon="7.15444">
        <ele>868</ele>
        <time>2012-05-10T06:44:56Z</time>
      </trkpt>
      <trkpt lat="43.88208" lon="7.15436">
        <ele>869</ele>
        <time>2012-05-10T06:45:05Z</time>
      </trkpt>
      <trkpt lat="43.88208" lon="7.1543">
        <ele>869</ele>
        <time>2012-05-10T06:45:10Z</time>
      </trkpt>
      <trkpt lat="43.88211" lon="7.15426">
        <ele>868</ele>
        <time>2012-05-10T06:45:19Z</time>
      </trkpt>
      <trkpt lat="43.88216" lon="7.15413">
        <ele>868</ele>
        <time>2012-05-10T06:45:32Z</time>
      </trkpt>
      <trkpt lat="43.88218" lon="7.15415">
        <ele>868</ele>
        <time>2012-05-10T06:45:44Z</time>
      </trkpt>
      <trkpt lat="43.88223" lon="7.15415">
        <ele>868</ele>
        <time>2012-05-10T06:45:57Z</time>
      </trkpt>
      <trkpt lat="43.88228" lon="7.15415">
        <ele>867</ele>
        <time>2012-05-10T06:46:03Z</time>
      </trkpt>
      <trkpt lat="43.88233" lon="7.15414">
        <ele>867</ele>
        <time>2012-05-10T06:46:09Z</time>
      </trkpt>
      <trkpt lat="43.88231" lon="7.15421">
        <ele>868</ele>
        <time>2012-05-10T06:46:20Z</time>
      </trkpt>
      <trkpt lat="43.88225" lon="7.1544">
        <ele>875</ele>
        <time>2012-05-10T06:46:39Z</time>
      </trkpt>
      <trkpt lat="43.88226" lon="7.15468">
        <ele>882</ele>
        <time>2012-05-10T06:46:59Z</time>
      </trkpt>
      <trkpt lat="43.8823" lon="7.15471">
        <ele>882</ele>
        <time>2012-05-10T06:47:04Z</time>
      </trkpt>
      <trkpt lat="43.8823" lon="7.15477">
        <ele>885</ele>
        <time>2012-05-10T06:47:16Z</time>
      </trkpt>
      <trkpt lat="43.88235" lon="7.15479">
        <ele>888</ele>
        <time>2012-05-10T06:47:28Z</time>
      </trkpt>
      <trkpt lat="43.8824" lon="7.1548">
        <ele>888</ele>
        <time>2012-05-10T06:47:33Z</time>
      </trkpt>
      <trkpt lat="43.88246" lon="7.15481">
        <ele>888</ele>
        <time>2012-05-10T06:47:37Z</time>
      </trkpt>
      <trkpt lat="43.88252" lon="7.15482">
        <ele>888</ele>
        <time>2012-05-10T06:47:40Z</time>
      </trkpt>
      <trkpt lat="43.88254" lon="7.15488">
        <ele>887</ele>
        <time>2012-05-10T06:47:44Z</time>
      </trkpt>
      <trkpt lat="43.88255" lon="7.15495">
        <ele>887</ele>
        <time>2012-05-10T06:47:50Z</time>
      </trkpt>
      <trkpt lat="43.88257" lon="7.15504">
        <ele>887</ele>
        <time>2012-05-10T06:47:54Z</time>
      </trkpt>
      <trkpt lat="43.88259" lon="7.1551">
        <ele>887</ele>
        <time>2012-05-10T06:48:00Z</time>
      </trkpt>
      <trkpt lat="43.88266" lon="7.15518">
        <ele>889</ele>
        <time>2012-05-10T06:48:28Z</time>
      </trkpt>
      <trkpt lat="43.88267" lon="7.15525">
        <ele>889</ele>
        <time>2012-05-10T06:48:33Z</time>
      </trkpt>
      <trkpt lat="43.8827" lon="7.15531">
        <ele>890</ele>
        <time>2012-05-10T06:48:41Z</time>
      </trkpt>
      <trkpt lat="43.88279" lon="7.15537">
        <ele>894</ele>
        <time>2012-05-10T06:48:54Z</time>
      </trkpt>
      <trkpt lat="43.88282" lon="7.15543">
        <ele>895</ele>
        <time>2012-05-10T06:49:02Z</time>
      </trkpt>
      <trkpt lat="43.88286" lon="7.15555">
        <ele>896</ele>
        <time>2012-05-10T06:49:26Z</time>
      </trkpt>
      <trkpt lat="43.8829" lon="7.15561">
        <ele>896</ele>
        <time>2012-05-10T06:49:30Z</time>
      </trkpt>
      <trkpt lat="43.8829" lon="7.15567">
        <ele>897</ele>
        <time>2012-05-10T06:49:37Z</time>
      </trkpt>
      <trkpt lat="43.88292" lon="7.15574">
        <ele>896</ele>
        <time>2012-05-10T06:49:44Z</time>
      </trkpt>
      <trkpt lat="43.88302" lon="7.15601">
        <ele>902</ele>
        <time>2012-05-10T06:50:14Z</time>
      </trkpt>
      <trkpt lat="43.88306" lon="7.15604">
        <ele>902</ele>
        <time>2012-05-10T06:50:20Z</time>
      </trkpt>
      <trkpt lat="43.88309" lon="7.1561">
        <ele>902</ele>
        <time>2012-05-10T06:50:49Z</time>
      </trkpt>
      <trkpt lat="43.88306" lon="7.15616">
        <ele>907</ele>
        <time>2012-05-10T06:50:53Z</time>
      </trkpt>
      <trkpt lat="43.88302" lon="7.1562">
        <ele>910</ele>
        <time>2012-05-10T06:50:56Z</time>
      </trkpt>
      <trkpt lat="43.88303" lon="7.15627">
        <ele>913</ele>
        <time>2012-05-10T06:51:01Z</time>
      </trkpt>
      <trkpt lat="43.88307" lon="7.15631">
        <ele>914</ele>
        <time>2012-05-10T06:51:07Z</time>
      </trkpt>
      <trkpt lat="43.88316" lon="7.15635">
        <ele>914</ele>
        <time>2012-05-10T06:51:18Z</time>
      </trkpt>
      <trkpt lat="43.88319" lon="7.15641">
        <ele>916</ele>
        <time>2012-05-10T06:51:23Z</time>
      </trkpt>
      <trkpt lat="43.8832" lon="7.15648">
        <ele>916</ele>
        <time>2012-05-10T06:51:29Z</time>
      </trkpt>
      <trkpt lat="43.88321" lon="7.15655">
        <ele>916</ele>
        <time>2012-05-10T06:51:34Z</time>
      </trkpt>
      <trkpt lat="43.88323" lon="7.15661">
        <ele>916</ele>
        <time>2012-05-10T06:51:39Z</time>
      </trkpt>
      <trkpt lat="43.88327" lon="7.15665">
        <ele>917</ele>
        <time>2012-05-10T06:51:45Z</time>
      </trkpt>
      <trkpt lat="43.88328" lon="7.15671">
        <ele>919</ele>
        <time>2012-05-10T06:51:52Z</time>
      </trkpt>
      <trkpt lat="43.8833" lon="7.15685">
        <ele>922</ele>
        <time>2012-05-10T06:52:02Z</time>
      </trkpt>
      <trkpt lat="43.88333" lon="7.1569">
        <ele>923</ele>
        <time>2012-05-10T06:52:08Z</time>
      </trkpt>
      <trkpt lat="43.88333" lon="7.15698">
        <ele>925</ele>
        <time>2012-05-10T06:52:14Z</time>
      </trkpt>
      <trkpt lat="43.88331" lon="7.15705">
        <ele>927</ele>
        <time>2012-05-10T06:52:17Z</time>
      </trkpt>
      <trkpt lat="43.88331" lon="7.15712">
        <ele>928</ele>
        <time>2012-05-10T06:52:21Z</time>
      </trkpt>
      <trkpt lat="43.88335" lon="7.15717">
        <ele>929</ele>
        <time>2012-05-10T06:52:28Z</time>
      </trkpt>
      <trkpt lat="43.88341" lon="7.15728">
        <ele>926</ele>
        <time>2012-05-10T06:52:41Z</time>
      </trkpt>
      <trkpt lat="43.88341" lon="7.15735">
        <ele>926</ele>
        <time>2012-05-10T06:52:46Z</time>
      </trkpt>
      <trkpt lat="43.88348" lon="7.15752">
        <ele>929</ele>
        <time>2012-05-10T06:53:04Z</time>
      </trkpt>
      <trkpt lat="43.88347" lon="7.15766">
        <ele>933</ele>
        <time>2012-05-10T06:53:20Z</time>
      </trkpt>
      <trkpt lat="43.8835" lon="7.15771">
        <ele>936</ele>
        <time>2012-05-10T06:53:24Z</time>
      </trkpt>
      <trkpt lat="43.88353" lon="7.15777">
        <ele>936</ele>
        <time>2012-05-10T06:53:28Z</time>
      </trkpt>
      <trkpt lat="43.88355" lon="7.15784">
        <ele>936</ele>
        <time>2012-05-10T06:53:34Z</time>
      </trkpt>
      <trkpt lat="43.88355" lon="7.15806">
        <ele>940</ele>
        <time>2012-05-10T06:53:53Z</time>
      </trkpt>
      <trkpt lat="43.88361" lon="7.15827">
        <ele>944</ele>
        <time>2012-05-10T06:54:12Z</time>
      </trkpt>
      <trkpt lat="43.88363" lon="7.15834">
        <ele>944</ele>
        <time>2012-05-10T06:54:16Z</time>
      </trkpt>
      <trkpt lat="43.88367" lon="7.15861">
        <ele>951</ele>
        <time>2012-05-10T06:54:41Z</time>
      </trkpt>
      <trkpt lat="43.8838" lon="7.15891">
        <ele>952</ele>
        <time>2012-05-10T06:55:12Z</time>
      </trkpt>
      <trkpt lat="43.88382" lon="7.15897">
        <ele>952</ele>
        <time>2012-05-10T06:55:19Z</time>
      </trkpt>
      <trkpt lat="43.88383" lon="7.159">
        <ele>953</ele>
        <time>2012-05-10T06:55:25Z</time>
      </trkpt>
      <trkpt lat="43.88386" lon="7.15905">
        <ele>953</ele>
        <time>2012-05-10T06:55:29Z</time>
      </trkpt>
      <trkpt lat="43.8839" lon="7.15911">
        <ele>953</ele>
        <time>2012-05-10T06:55:33Z</time>
      </trkpt>
      <trkpt lat="43.88396" lon="7.15931">
        <ele>956</ele>
        <time>2012-05-10T06:55:55Z</time>
      </trkpt>
      <trkpt lat="43.88394" lon="7.15938">
        <ele>957</ele>
        <time>2012-05-10T06:55:58Z</time>
      </trkpt>
      <trkpt lat="43.88395" lon="7.15945">
        <ele>957</ele>
        <time>2012-05-10T06:56:02Z</time>
      </trkpt>
      <trkpt lat="43.88399" lon="7.15957">
        <ele>960</ele>
        <time>2012-05-10T06:56:14Z</time>
      </trkpt>
      <trkpt lat="43.88408" lon="7.15967">
        <ele>958</ele>
        <time>2012-05-10T06:56:21Z</time>
      </trkpt>
      <trkpt lat="43.88412" lon="7.15969">
        <ele>957</ele>
        <time>2012-05-10T06:56:26Z</time>
      </trkpt>
      <trkpt lat="43.88415" lon="7.15975">
        <ele>957</ele>
        <time>2012-05-10T06:56:32Z</time>
      </trkpt>
      <trkpt lat="43.88439" lon="7.16018">
        <ele>966</ele>
        <time>2012-05-10T06:57:05Z</time>
      </trkpt>
      <trkpt lat="43.88441" lon="7.16024">
        <ele>966</ele>
        <time>2012-05-10T06:57:13Z</time>
      </trkpt>
      <trkpt lat="43.88446" lon="7.16027">
        <ele>968</ele>
        <time>2012-05-10T06:57:18Z</time>
      </trkpt>
      <trkpt lat="43.88453" lon="7.16048">
        <ele>972</ele>
        <time>2012-05-10T06:57:32Z</time>
      </trkpt>
      <trkpt lat="43.88455" lon="7.16061">
        <ele>975</ele>
        <time>2012-05-10T06:57:45Z</time>
      </trkpt>
      <trkpt lat="43.88459" lon="7.16064">
        <ele>977</ele>
        <time>2012-05-10T06:57:52Z</time>
      </trkpt>
      <trkpt lat="43.88469" lon="7.16067">
        <ele>978</ele>
        <time>2012-05-10T06:58:01Z</time>
      </trkpt>
      <trkpt lat="43.88474" lon="7.16065">
        <ele>978</ele>
        <time>2012-05-10T06:58:05Z</time>
      </trkpt>
      <trkpt lat="43.88478" lon="7.16066">
        <ele>981</ele>
        <time>2012-05-10T06:58:13Z</time>
      </trkpt>
      <trkpt lat="43.88483" lon="7.16064">
        <ele>982</ele>
        <time>2012-05-10T06:58:20Z</time>
      </trkpt>
      <trkpt lat="43.88488" lon="7.16062">
        <ele>982</ele>
        <time>2012-05-10T06:58:28Z</time>
      </trkpt>
      <trkpt lat="43.88493" lon="7.16062">
        <ele>982</ele>
        <time>2012-05-10T06:58:33Z</time>
      </trkpt>
      <trkpt lat="43.88497" lon="7.16068">
        <ele>985</ele>
        <time>2012-05-10T06:58:44Z</time>
      </trkpt>
      <trkpt lat="43.885" lon="7.16074">
        <ele>986</ele>
        <time>2012-05-10T06:58:50Z</time>
      </trkpt>
      <trkpt lat="43.88501" lon="7.16081">
        <ele>986</ele>
        <time>2012-05-10T06:58:55Z</time>
      </trkpt>
      <trkpt lat="43.88502" lon="7.16087">
        <ele>986</ele>
        <time>2012-05-10T06:59:01Z</time>
      </trkpt>
      <trkpt lat="43.88507" lon="7.1609">
        <ele>985</ele>
        <time>2012-05-10T06:59:06Z</time>
      </trkpt>
      <trkpt lat="43.88516" lon="7.16083">
        <ele>982</ele>
        <time>2012-05-10T06:59:10Z</time>
      </trkpt>
      <trkpt lat="43.88521" lon="7.16078">
        <ele>981</ele>
        <time>2012-05-10T06:59:14Z</time>
      </trkpt>
      <trkpt lat="43.88523" lon="7.16084">
        <ele>980</ele>
        <time>2012-05-10T06:59:23Z</time>
      </trkpt>
      <trkpt lat="43.88523" lon="7.16092">
        <ele>980</ele>
        <time>2012-05-10T06:59:27Z</time>
      </trkpt>
      <trkpt lat="43.88526" lon="7.16098">
        <ele>979</ele>
        <time>2012-05-10T06:59:32Z</time>
      </trkpt>
      <trkpt lat="43.88529" lon="7.1612">
        <ele>978</ele>
        <time>2012-05-10T06:59:48Z</time>
      </trkpt>
      <trkpt lat="43.88525" lon="7.16133">
        <ele>975</ele>
        <time>2012-05-10T07:00:08Z</time>
      </trkpt>
      <trkpt lat="43.88526" lon="7.1614">
        <ele>975</ele>
        <time>2012-05-10T07:00:16Z</time>
      </trkpt>
      <trkpt lat="43.88522" lon="7.16153">
        <ele>977</ele>
        <time>2012-05-10T07:00:31Z</time>
      </trkpt>
      <trkpt lat="43.88522" lon="7.16163">
        <ele>978</ele>
        <time>2012-05-10T07:00:36Z</time>
      </trkpt>
      <trkpt lat="43.88529" lon="7.16203">
        <ele>991</ele>
        <time>2012-05-10T07:01:13Z</time>
      </trkpt>
      <trkpt lat="43.88546" lon="7.16238">
        <ele>997</ele>
        <time>2012-05-10T07:01:43Z</time>
      </trkpt>
      <trkpt lat="43.8855" lon="7.16239">
        <ele>997</ele>
        <time>2012-05-10T07:01:49Z</time>
      </trkpt>
      <trkpt lat="43.88553" lon="7.16245">
        <ele>999</ele>
        <time>2012-05-10T07:01:57Z</time>
      </trkpt>
      <trkpt lat="43.88558" lon="7.1625">
        <ele>999</ele>
        <time>2012-05-10T07:02:02Z</time>
      </trkpt>
      <trkpt lat="43.88571" lon="7.16278">
        <ele>1004</ele>
        <time>2012-05-10T07:02:33Z</time>
      </trkpt>
      <trkpt lat="43.88586" lon="7.16297">
        <ele>1013</ele>
        <time>2012-05-10T07:03:01Z</time>
      </trkpt>
      <trkpt lat="43.88591" lon="7.16301">
        <ele>1013</ele>
        <time>2012-05-10T07:03:07Z</time>
      </trkpt>
      <trkpt lat="43.88595" lon="7.16306">
        <ele>1014</ele>
        <time>2012-05-10T07:03:12Z</time>
      </trkpt>
      <trkpt lat="43.88609" lon="7.16336">
        <ele>1025</ele>
        <time>2012-05-10T07:03:41Z</time>
      </trkpt>
      <trkpt lat="43.88613" lon="7.16342">
        <ele>1025</ele>
        <time>2012-05-10T07:03:47Z</time>
      </trkpt>
      <trkpt lat="43.88619" lon="7.16354">
        <ele>1026</ele>
        <time>2012-05-10T07:03:59Z</time>
      </trkpt>
      <trkpt lat="43.88626" lon="7.16365">
        <ele>1026</ele>
        <time>2012-05-10T07:04:06Z</time>
      </trkpt>
      <trkpt lat="43.8863" lon="7.1637">
        <ele>1026</ele>
        <time>2012-05-10T07:04:12Z</time>
      </trkpt>
      <trkpt lat="43.88631" lon="7.16378">
        <ele>1026</ele>
        <time>2012-05-10T07:04:17Z</time>
      </trkpt>
      <trkpt lat="43.88634" lon="7.16384">
        <ele>1027</ele>
        <time>2012-05-10T07:04:22Z</time>
      </trkpt>
      <trkpt lat="43.88644" lon="7.16394">
        <ele>1031</ele>
        <time>2012-05-10T07:04:37Z</time>
      </trkpt>
      <trkpt lat="43.88647" lon="7.16407">
        <ele>1033</ele>
        <time>2012-05-10T07:04:50Z</time>
      </trkpt>
      <trkpt lat="43.88649" lon="7.16414">
        <ele>1033</ele>
        <time>2012-05-10T07:04:55Z</time>
      </trkpt>
      <trkpt lat="43.88657" lon="7.16421">
        <ele>1032</ele>
        <time>2012-05-10T07:05:03Z</time>
      </trkpt>
      <trkpt lat="43.88659" lon="7.16423">
        <ele>1032</ele>
        <time>2012-05-10T07:05:17Z</time>
      </trkpt>
      <trkpt lat="43.88663" lon="7.16418">
        <ele>1031</ele>
        <time>2012-05-10T07:05:32Z</time>
      </trkpt>
      <trkpt lat="43.88664" lon="7.16422">
        <ele>1031</ele>
        <time>2012-05-10T07:05:39Z</time>
      </trkpt>
      <trkpt lat="43.88667" lon="7.16428">
        <ele>1031</ele>
        <time>2012-05-10T07:06:04Z</time>
      </trkpt>
      <trkpt lat="43.88672" lon="7.16433">
        <ele>1032</ele>
        <time>2012-05-10T07:06:07Z</time>
      </trkpt>
      <trkpt lat="43.88672" lon="7.16434">
        <ele>1034</ele>
        <time>2012-05-10T07:06:21Z</time>
      </trkpt>
      <trkpt lat="43.88671" lon="7.16426">
        <ele>1034</ele>
        <time>2012-05-10T07:06:30Z</time>
      </trkpt>
      <trkpt lat="43.88667" lon="7.16426">
        <ele>1034</ele>
        <time>2012-05-10T07:06:47Z</time>
      </trkpt>
      <trkpt lat="43.88664" lon="7.16427">
        <ele>1033</ele>
        <time>2012-05-10T07:06:59Z</time>
      </trkpt>
      <trkpt lat="43.88665" lon="7.16428">
        <ele>1030</ele>
        <time>2012-05-10T07:07:44Z</time>
      </trkpt>
      <trkpt lat="43.88668" lon="7.16435">
        <ele>1030</ele>
        <time>2012-05-10T07:07:50Z</time>
      </trkpt>
      <trkpt lat="43.88672" lon="7.16438">
        <ele>1029</ele>
        <time>2012-05-10T07:07:53Z</time>
      </trkpt>
      <trkpt lat="43.88677" lon="7.16438">
        <ele>1028</ele>
        <time>2012-05-10T07:07:57Z</time>
      </trkpt>
      <trkpt lat="43.88681" lon="7.16443">
        <ele>1028</ele>
        <time>2012-05-10T07:08:01Z</time>
      </trkpt>
      <trkpt lat="43.88692" lon="7.16457">
        <ele>1033</ele>
        <time>2012-05-10T07:08:16Z</time>
      </trkpt>
      <trkpt lat="43.88697" lon="7.16458">
        <ele>1034</ele>
        <time>2012-05-10T07:08:23Z</time>
      </trkpt>
      <trkpt lat="43.88701" lon="7.16462">
        <ele>1037</ele>
        <time>2012-05-10T07:08:30Z</time>
      </trkpt>
      <trkpt lat="43.88704" lon="7.16483">
        <ele>1042</ele>
        <time>2012-05-10T07:08:46Z</time>
      </trkpt>
      <trkpt lat="43.88707" lon="7.16488">
        <ele>1042</ele>
        <time>2012-05-10T07:08:53Z</time>
      </trkpt>
      <trkpt lat="43.88727" lon="7.16519">
        <ele>1050</ele>
        <time>2012-05-10T07:09:23Z</time>
      </trkpt>
      <trkpt lat="43.88732" lon="7.16523">
        <ele>1050</ele>
        <time>2012-05-10T07:09:28Z</time>
      </trkpt>
      <trkpt lat="43.88734" lon="7.1653">
        <ele>1050</ele>
        <time>2012-05-10T07:09:33Z</time>
      </trkpt>
      <trkpt lat="43.88734" lon="7.16537">
        <ele>1050</ele>
        <time>2012-05-10T07:09:36Z</time>
      </trkpt>
      <trkpt lat="43.88736" lon="7.16543">
        <ele>1051</ele>
        <time>2012-05-10T07:09:41Z</time>
      </trkpt>
      <trkpt lat="43.8874" lon="7.16548">
        <ele>1052</ele>
        <time>2012-05-10T07:09:47Z</time>
      </trkpt>
      <trkpt lat="43.88742" lon="7.16555">
        <ele>1052</ele>
        <time>2012-05-10T07:09:52Z</time>
      </trkpt>
      <trkpt lat="43.88752" lon="7.16572">
        <ele>1057</ele>
        <time>2012-05-10T07:10:06Z</time>
      </trkpt>
      <trkpt lat="43.88773" lon="7.16611">
        <ele>1064</ele>
        <time>2012-05-10T07:10:39Z</time>
      </trkpt>
      <trkpt lat="43.88778" lon="7.16613">
        <ele>1065</ele>
        <time>2012-05-10T07:10:45Z</time>
      </trkpt>
      <trkpt lat="43.88781" lon="7.16619">
        <ele>1067</ele>
        <time>2012-05-10T07:10:51Z</time>
      </trkpt>
      <trkpt lat="43.88802" lon="7.16648">
        <ele>1072</ele>
        <time>2012-05-10T07:11:16Z</time>
      </trkpt>
      <trkpt lat="43.88811" lon="7.16655">
        <ele>1072</ele>
        <time>2012-05-10T07:11:24Z</time>
      </trkpt>
      <trkpt lat="43.88819" lon="7.16664">
        <ele>1071</ele>
        <time>2012-05-10T07:11:33Z</time>
      </trkpt>
      <trkpt lat="43.88819" lon="7.16672">
        <ele>1071</ele>
        <time>2012-05-10T07:11:38Z</time>
      </trkpt>
      <trkpt lat="43.88813" lon="7.16683">
        <ele>1071</ele>
        <time>2012-05-10T07:11:45Z</time>
      </trkpt>
      <trkpt lat="43.88814" lon="7.16689">
        <ele>1071</ele>
        <time>2012-05-10T07:11:50Z</time>
      </trkpt>
      <trkpt lat="43.88808" lon="7.16692">
        <ele>1073</ele>
        <time>2012-05-10T07:11:54Z</time>
      </trkpt>
      <trkpt lat="43.88807" lon="7.16699">
        <ele>1074</ele>
        <time>2012-05-10T07:11:59Z</time>
      </trkpt>
      <trkpt lat="43.88811" lon="7.16706">
        <ele>1072</ele>
        <time>2012-05-10T07:12:03Z</time>
      </trkpt>
      <trkpt lat="43.88819" lon="7.16716">
        <ele>1070</ele>
        <time>2012-05-10T07:12:10Z</time>
      </trkpt>
      <trkpt lat="43.88831" lon="7.16746">
        <ele>1071</ele>
        <time>2012-05-10T07:12:33Z</time>
      </trkpt>
      <trkpt lat="43.88835" lon="7.16751">
        <ele>1073</ele>
        <time>2012-05-10T07:12:41Z</time>
      </trkpt>
      <trkpt lat="43.8884" lon="7.16757">
        <ele>1072</ele>
        <time>2012-05-10T07:12:45Z</time>
      </trkpt>
      <trkpt lat="43.88843" lon="7.16762">
        <ele>1073</ele>
        <time>2012-05-10T07:12:49Z</time>
      </trkpt>
      <trkpt lat="43.8886" lon="7.16786">
        <ele>1079</ele>
        <time>2012-05-10T07:13:20Z</time>
      </trkpt>
      <trkpt lat="43.88862" lon="7.16792">
        <ele>1080</ele>
        <time>2012-05-10T07:13:27Z</time>
      </trkpt>
      <trkpt lat="43.88867" lon="7.16793">
        <ele>1084</ele>
        <time>2012-05-10T07:13:35Z</time>
      </trkpt>
      <trkpt lat="43.88869" lon="7.168">
        <ele>1085</ele>
        <time>2012-05-10T07:13:44Z</time>
      </trkpt>
      <trkpt lat="43.88874" lon="7.16812">
        <ele>1089</ele>
        <time>2012-05-10T07:13:58Z</time>
      </trkpt>
      <trkpt lat="43.88872" lon="7.16826">
        <ele>1091</ele>
        <time>2012-05-10T07:14:09Z</time>
      </trkpt>
      <trkpt lat="43.88875" lon="7.16831">
        <ele>1093</ele>
        <time>2012-05-10T07:14:14Z</time>
      </trkpt>
      <trkpt lat="43.88879" lon="7.16837">
        <ele>1095</ele>
        <time>2012-05-10T07:14:20Z</time>
      </trkpt>
      <trkpt lat="43.88883" lon="7.16836">
        <ele>1097</ele>
        <time>2012-05-10T07:14:41Z</time>
      </trkpt>
      <trkpt lat="43.88892" lon="7.16844">
        <ele>1098</ele>
        <time>2012-05-10T07:14:57Z</time>
      </trkpt>
      <trkpt lat="43.88894" lon="7.1685">
        <ele>1101</ele>
        <time>2012-05-10T07:15:05Z</time>
      </trkpt>
      <trkpt lat="43.88902" lon="7.16859">
        <ele>1108</ele>
        <time>2012-05-10T07:15:20Z</time>
      </trkpt>
      <trkpt lat="43.88904" lon="7.16871">
        <ele>1111</ele>
        <time>2012-05-10T07:15:34Z</time>
      </trkpt>
      <trkpt lat="43.8891" lon="7.16884">
        <ele>1114</ele>
        <time>2012-05-10T07:15:49Z</time>
      </trkpt>
      <trkpt lat="43.88906" lon="7.16905">
        <ele>1117</ele>
        <time>2012-05-10T07:16:05Z</time>
      </trkpt>
      <trkpt lat="43.88904" lon="7.16911">
        <ele>1116</ele>
        <time>2012-05-10T07:16:11Z</time>
      </trkpt>
      <trkpt lat="43.88902" lon="7.16933">
        <ele>1112</ele>
        <time>2012-05-10T07:16:23Z</time>
      </trkpt>
      <trkpt lat="43.88903" lon="7.16942">
        <ele>1112</ele>
        <time>2012-05-10T07:16:37Z</time>
      </trkpt>
      <trkpt lat="43.88902" lon="7.16949">
        <ele>1114</ele>
        <time>2012-05-10T07:16:42Z</time>
      </trkpt>
      <trkpt lat="43.88905" lon="7.16955">
        <ele>1116</ele>
        <time>2012-05-10T07:16:52Z</time>
      </trkpt>
      <trkpt lat="43.88903" lon="7.16954">
        <ele>1121</ele>
        <time>2012-05-10T07:18:41Z</time>
      </trkpt>
      <trkpt lat="43.889" lon="7.16956">
        <ele>1121</ele>
        <time>2012-05-10T07:19:06Z</time>
      </trkpt>
      <trkpt lat="43.88903" lon="7.16958">
        <ele>1122</ele>
        <time>2012-05-10T07:19:53Z</time>
      </trkpt>
      <trkpt lat="43.8891" lon="7.1696">
        <ele>1122</ele>
        <time>2012-05-10T07:20:25Z</time>
      </trkpt>
      <trkpt lat="43.88912" lon="7.16959">
        <ele>1122</ele>
        <time>2012-05-10T07:20:30Z</time>
      </trkpt>
      <trkpt lat="43.88915" lon="7.16964">
        <ele>1123</ele>
        <time>2012-05-10T07:20:36Z</time>
      </trkpt>
      <trkpt lat="43.88921" lon="7.16963">
        <ele>1123</ele>
        <time>2012-05-10T07:20:40Z</time>
      </trkpt>
      <trkpt lat="43.88926" lon="7.16962">
        <ele>1123</ele>
        <time>2012-05-10T07:20:43Z</time>
      </trkpt>
      <trkpt lat="43.88931" lon="7.16965">
        <ele>1123</ele>
        <time>2012-05-10T07:20:46Z</time>
      </trkpt>
      <trkpt lat="43.88936" lon="7.16964">
        <ele>1123</ele>
        <time>2012-05-10T07:20:50Z</time>
      </trkpt>
      <trkpt lat="43.88946" lon="7.16954">
        <ele>1123</ele>
        <time>2012-05-10T07:20:55Z</time>
      </trkpt>
      <trkpt lat="43.88957" lon="7.16951">
        <ele>1124</ele>
        <time>2012-05-10T07:21:03Z</time>
      </trkpt>
      <trkpt lat="43.88963" lon="7.16961">
        <ele>1125</ele>
        <time>2012-05-10T07:21:17Z</time>
      </trkpt>
      <trkpt lat="43.88968" lon="7.1696">
        <ele>1127</ele>
        <time>2012-05-10T07:21:21Z</time>
      </trkpt>
      <trkpt lat="43.88973" lon="7.16957">
        <ele>1128</ele>
        <time>2012-05-10T07:21:27Z</time>
      </trkpt>
      <trkpt lat="43.88978" lon="7.16956">
        <ele>1128</ele>
        <time>2012-05-10T07:21:33Z</time>
      </trkpt>
      <trkpt lat="43.88982" lon="7.16957">
        <ele>1129</ele>
        <time>2012-05-10T07:21:41Z</time>
      </trkpt>
      <trkpt lat="43.88987" lon="7.16955">
        <ele>1129</ele>
        <time>2012-05-10T07:21:46Z</time>
      </trkpt>
      <trkpt lat="43.88995" lon="7.16947">
        <ele>1129</ele>
        <time>2012-05-10T07:21:57Z</time>
      </trkpt>
      <trkpt lat="43.89004" lon="7.16939">
        <ele>1134</ele>
        <time>2012-05-10T07:22:34Z</time>
      </trkpt>
      <trkpt lat="43.89017" lon="7.16931">
        <ele>1146</ele>
        <time>2012-05-10T07:23:06Z</time>
      </trkpt>
      <trkpt lat="43.89016" lon="7.16929">
        <ele>1148</ele>
        <time>2012-05-10T07:23:20Z</time>
      </trkpt>
      <trkpt lat="43.89011" lon="7.16925">
        <ele>1148</ele>
        <time>2012-05-10T07:23:25Z</time>
      </trkpt>
      <trkpt lat="43.89006" lon="7.16924">
        <ele>1148</ele>
        <time>2012-05-10T07:23:31Z</time>
      </trkpt>
      <trkpt lat="43.89009" lon="7.16918">
        <ele>1151</ele>
        <time>2012-05-10T07:23:43Z</time>
      </trkpt>
      <trkpt lat="43.89008" lon="7.16912">
        <ele>1153</ele>
        <time>2012-05-10T07:23:54Z</time>
      </trkpt>
      <trkpt lat="43.89005" lon="7.16908">
        <ele>1156</ele>
        <time>2012-05-10T07:24:01Z</time>
      </trkpt>
      <trkpt lat="43.89" lon="7.16906">
        <ele>1156</ele>
        <time>2012-05-10T07:24:07Z</time>
      </trkpt>
      <trkpt lat="43.88997" lon="7.169">
        <ele>1157</ele>
        <time>2012-05-10T07:24:12Z</time>
      </trkpt>
      <trkpt lat="43.89002" lon="7.16899">
        <ele>1158</ele>
        <time>2012-05-10T07:24:18Z</time>
      </trkpt>
      <trkpt lat="43.89005" lon="7.16894">
        <ele>1160</ele>
        <time>2012-05-10T07:24:28Z</time>
      </trkpt>
      <trkpt lat="43.89001" lon="7.16888">
        <ele>1161</ele>
        <time>2012-05-10T07:24:35Z</time>
      </trkpt>
      <trkpt lat="43.88996" lon="7.16888">
        <ele>1160</ele>
        <time>2012-05-10T07:24:40Z</time>
      </trkpt>
      <trkpt lat="43.88991" lon="7.16889">
        <ele>1160</ele>
        <time>2012-05-10T07:24:46Z</time>
      </trkpt>
      <trkpt lat="43.88986" lon="7.16889">
        <ele>1160</ele>
        <time>2012-05-10T07:24:52Z</time>
      </trkpt>
      <trkpt lat="43.88982" lon="7.16893">
        <ele>1159</ele>
        <time>2012-05-10T07:24:57Z</time>
      </trkpt>
      <trkpt lat="43.88972" lon="7.16892">
        <ele>1159</ele>
        <time>2012-05-10T07:25:07Z</time>
      </trkpt>
      <trkpt lat="43.88974" lon="7.16888">
        <ele>1163</ele>
        <time>2012-05-10T07:25:26Z</time>
      </trkpt>
      <trkpt lat="43.88972" lon="7.16884">
        <ele>1164</ele>
        <time>2012-05-10T07:25:34Z</time>
      </trkpt>
      <trkpt lat="43.88977" lon="7.1688">
        <ele>1168</ele>
        <time>2012-05-10T07:25:39Z</time>
      </trkpt>
      <trkpt lat="43.88984" lon="7.16862">
        <ele>1181</ele>
        <time>2012-05-10T07:26:08Z</time>
      </trkpt>
      <trkpt lat="43.88988" lon="7.16859">
        <ele>1181</ele>
        <time>2012-05-10T07:26:15Z</time>
      </trkpt>
      <trkpt lat="43.8899" lon="7.16852">
        <ele>1181</ele>
        <time>2012-05-10T07:26:21Z</time>
      </trkpt>
      <trkpt lat="43.88989" lon="7.16849">
        <ele>1183</ele>
        <time>2012-05-10T07:26:27Z</time>
      </trkpt>
      <trkpt lat="43.88994" lon="7.16849">
        <ele>1185</ele>
        <time>2012-05-10T07:26:33Z</time>
      </trkpt>
      <trkpt lat="43.88999" lon="7.16846">
        <ele>1185</ele>
        <time>2012-05-10T07:26:37Z</time>
      </trkpt>
      <trkpt lat="43.89003" lon="7.1684">
        <ele>1186</ele>
        <time>2012-05-10T07:26:49Z</time>
      </trkpt>
      <trkpt lat="43.89007" lon="7.16838">
        <ele>1187</ele>
        <time>2012-05-10T07:26:54Z</time>
      </trkpt>
      <trkpt lat="43.89013" lon="7.16827">
        <ele>1188</ele>
        <time>2012-05-10T07:27:04Z</time>
      </trkpt>
      <trkpt lat="43.89017" lon="7.1682">
        <ele>1187</ele>
        <time>2012-05-10T07:27:16Z</time>
      </trkpt>
      <trkpt lat="43.89022" lon="7.1682">
        <ele>1188</ele>
        <time>2012-05-10T07:27:22Z</time>
      </trkpt>
      <trkpt lat="43.89028" lon="7.16817">
        <ele>1187</ele>
        <time>2012-05-10T07:27:26Z</time>
      </trkpt>
      <trkpt lat="43.89033" lon="7.16814">
        <ele>1189</ele>
        <time>2012-05-10T07:27:30Z</time>
      </trkpt>
      <trkpt lat="43.89038" lon="7.16817">
        <ele>1190</ele>
        <time>2012-05-10T07:27:38Z</time>
      </trkpt>
      <trkpt lat="43.89042" lon="7.16821">
        <ele>1194</ele>
        <time>2012-05-10T07:27:43Z</time>
      </trkpt>
      <trkpt lat="43.89044" lon="7.16815">
        <ele>1196</ele>
        <time>2012-05-10T07:27:52Z</time>
      </trkpt>
      <trkpt lat="43.89054" lon="7.16812">
        <ele>1202</ele>
        <time>2012-05-10T07:28:02Z</time>
      </trkpt>
      <trkpt lat="43.89064" lon="7.16815">
        <ele>1206</ele>
        <time>2012-05-10T07:28:10Z</time>
      </trkpt>
      <trkpt lat="43.89067" lon="7.1681">
        <ele>1206</ele>
        <time>2012-05-10T07:28:18Z</time>
      </trkpt>
      <trkpt lat="43.89074" lon="7.16809">
        <ele>1206</ele>
        <time>2012-05-10T07:28:29Z</time>
      </trkpt>
      <trkpt lat="43.89079" lon="7.16808">
        <ele>1208</ele>
        <time>2012-05-10T07:28:39Z</time>
      </trkpt>
      <trkpt lat="43.89084" lon="7.1681">
        <ele>1208</ele>
        <time>2012-05-10T07:28:44Z</time>
      </trkpt>
      <trkpt lat="43.89086" lon="7.16809">
        <ele>1208</ele>
        <time>2012-05-10T07:28:50Z</time>
      </trkpt>
      <trkpt lat="43.89091" lon="7.16809">
        <ele>1209</ele>
        <time>2012-05-10T07:29:00Z</time>
      </trkpt>
      <trkpt lat="43.89095" lon="7.16815">
        <ele>1210</ele>
        <time>2012-05-10T07:29:10Z</time>
      </trkpt>
      <trkpt lat="43.89101" lon="7.16812">
        <ele>1210</ele>
        <time>2012-05-10T07:29:20Z</time>
      </trkpt>
      <trkpt lat="43.89106" lon="7.16808">
        <ele>1211</ele>
        <time>2012-05-10T07:29:23Z</time>
      </trkpt>
      <trkpt lat="43.89111" lon="7.16803">
        <ele>1211</ele>
        <time>2012-05-10T07:29:26Z</time>
      </trkpt>
      <trkpt lat="43.89115" lon="7.16802">
        <ele>1211</ele>
        <time>2012-05-10T07:29:35Z</time>
      </trkpt>
      <trkpt lat="43.89117" lon="7.16809">
        <ele>1211</ele>
        <time>2012-05-10T07:29:42Z</time>
      </trkpt>
      <trkpt lat="43.89118" lon="7.16813">
        <ele>1213</ele>
        <time>2012-05-10T07:29:49Z</time>
      </trkpt>
      <trkpt lat="43.89122" lon="7.16816">
        <ele>1214</ele>
        <time>2012-05-10T07:29:53Z</time>
      </trkpt>
      <trkpt lat="43.89124" lon="7.16822">
        <ele>1215</ele>
        <time>2012-05-10T07:29:56Z</time>
      </trkpt>
      <trkpt lat="43.89118" lon="7.16828">
        <ele>1218</ele>
        <time>2012-05-10T07:30:22Z</time>
      </trkpt>
      <trkpt lat="43.89114" lon="7.16824">
        <ele>1218</ele>
        <time>2012-05-10T07:30:24Z</time>
      </trkpt>
      <trkpt lat="43.89117" lon="7.16825">
        <ele>1217</ele>
        <time>2012-05-10T07:30:57Z</time>
      </trkpt>
      <trkpt lat="43.89122" lon="7.16827">
        <ele>1217</ele>
        <time>2012-05-10T07:31:04Z</time>
      </trkpt>
      <trkpt lat="43.89126" lon="7.16826">
        <ele>1223</ele>
        <time>2012-05-10T07:31:18Z</time>
      </trkpt>
      <trkpt lat="43.89125" lon="7.16832">
        <ele>1226</ele>
        <time>2012-05-10T07:31:27Z</time>
      </trkpt>
      <trkpt lat="43.89122" lon="7.16836">
        <ele>1228</ele>
        <time>2012-05-10T07:31:50Z</time>
      </trkpt>
      <trkpt lat="43.89123" lon="7.16834">
        <ele>1232</ele>
        <time>2012-05-10T07:32:04Z</time>
      </trkpt>
      <trkpt lat="43.8912" lon="7.16842">
        <ele>1233</ele>
        <time>2012-05-10T07:32:34Z</time>
      </trkpt>
      <trkpt lat="43.89118" lon="7.16839">
        <ele>1233</ele>
        <time>2012-05-10T07:32:42Z</time>
      </trkpt>
      <trkpt lat="43.89122" lon="7.16833">
        <ele>1233</ele>
        <time>2012-05-10T07:32:47Z</time>
      </trkpt>
      <trkpt lat="43.89123" lon="7.1683">
        <ele>1231</ele>
        <time>2012-05-10T07:33:25Z</time>
      </trkpt>
      <trkpt lat="43.89118" lon="7.16827">
        <ele>1230</ele>
        <time>2012-05-10T07:34:01Z</time>
      </trkpt>
      <trkpt lat="43.89119" lon="7.16827">
        <ele>1226</ele>
        <time>2012-05-10T07:35:43Z</time>
      </trkpt>
      <trkpt lat="43.89123" lon="7.16826">
        <ele>1226</ele>
        <time>2012-05-10T07:36:02Z</time>
      </trkpt>
      <trkpt lat="43.89127" lon="7.16829">
        <ele>1225</ele>
        <time>2012-05-10T07:36:14Z</time>
      </trkpt>
      <trkpt lat="43.89133" lon="7.16828">
        <ele>1224</ele>
        <time>2012-05-10T07:36:26Z</time>
      </trkpt>
      <trkpt lat="43.89135" lon="7.16835">
        <ele>1224</ele>
        <time>2012-05-10T07:36:33Z</time>
      </trkpt>
      <trkpt lat="43.89139" lon="7.16842">
        <ele>1226</ele>
        <time>2012-05-10T07:36:37Z</time>
      </trkpt>
      <trkpt lat="43.89149" lon="7.16847">
        <ele>1229</ele>
        <time>2012-05-10T07:36:49Z</time>
      </trkpt>
      <trkpt lat="43.89154" lon="7.16847">
        <ele>1229</ele>
        <time>2012-05-10T07:36:53Z</time>
      </trkpt>
      <trkpt lat="43.89159" lon="7.16844">
        <ele>1230</ele>
        <time>2012-05-10T07:36:59Z</time>
      </trkpt>
      <trkpt lat="43.89163" lon="7.16842">
        <ele>1230</ele>
        <time>2012-05-10T07:37:02Z</time>
      </trkpt>
      <trkpt lat="43.89168" lon="7.16844">
        <ele>1229</ele>
        <time>2012-05-10T07:37:08Z</time>
      </trkpt>
      <trkpt lat="43.89172" lon="7.16838">
        <ele>1229</ele>
        <time>2012-05-10T07:37:14Z</time>
      </trkpt>
      <trkpt lat="43.89184" lon="7.16822">
        <ele>1230</ele>
        <time>2012-05-10T07:37:24Z</time>
      </trkpt>
      <trkpt lat="43.89192" lon="7.16813">
        <ele>1229</ele>
        <time>2012-05-10T07:37:33Z</time>
      </trkpt>
      <trkpt lat="43.89197" lon="7.16814">
        <ele>1230</ele>
        <time>2012-05-10T07:37:38Z</time>
      </trkpt>
      <trkpt lat="43.89201" lon="7.1681">
        <ele>1231</ele>
        <time>2012-05-10T07:37:42Z</time>
      </trkpt>
      <trkpt lat="43.89207" lon="7.16798">
        <ele>1231</ele>
        <time>2012-05-10T07:37:50Z</time>
      </trkpt>
      <trkpt lat="43.8921" lon="7.16793">
        <ele>1231</ele>
        <time>2012-05-10T07:37:58Z</time>
      </trkpt>
      <trkpt lat="43.89216" lon="7.1679">
        <ele>1232</ele>
        <time>2012-05-10T07:38:05Z</time>
      </trkpt>
      <trkpt lat="43.89226" lon="7.16781">
        <ele>1232</ele>
        <time>2012-05-10T07:38:09Z</time>
      </trkpt>
      <trkpt lat="43.8923" lon="7.16775">
        <ele>1231</ele>
        <time>2012-05-10T07:38:12Z</time>
      </trkpt>
      <trkpt lat="43.89234" lon="7.16768">
        <ele>1230</ele>
        <time>2012-05-10T07:38:15Z</time>
      </trkpt>
      <trkpt lat="43.89237" lon="7.16763">
        <ele>1229</ele>
        <time>2012-05-10T07:38:23Z</time>
      </trkpt>
      <trkpt lat="43.89253" lon="7.16757">
        <ele>1233</ele>
        <time>2012-05-10T07:38:34Z</time>
      </trkpt>
      <trkpt lat="43.89256" lon="7.16753">
        <ele>1232</ele>
        <time>2012-05-10T07:38:43Z</time>
      </trkpt>
      <trkpt lat="43.89261" lon="7.1675">
        <ele>1233</ele>
        <time>2012-05-10T07:38:47Z</time>
      </trkpt>
      <trkpt lat="43.89265" lon="7.16744">
        <ele>1233</ele>
        <time>2012-05-10T07:38:51Z</time>
      </trkpt>
      <trkpt lat="43.89269" lon="7.1674">
        <ele>1233</ele>
        <time>2012-05-10T07:38:54Z</time>
      </trkpt>
      <trkpt lat="43.89272" lon="7.16735">
        <ele>1233</ele>
        <time>2012-05-10T07:38:59Z</time>
      </trkpt>
      <trkpt lat="43.89276" lon="7.1673">
        <ele>1232</ele>
        <time>2012-05-10T07:39:05Z</time>
      </trkpt>
      <trkpt lat="43.89285" lon="7.16722">
        <ele>1233</ele>
        <time>2012-05-10T07:39:13Z</time>
      </trkpt>
      <trkpt lat="43.89306" lon="7.1672">
        <ele>1239</ele>
        <time>2012-05-10T07:39:28Z</time>
      </trkpt>
      <trkpt lat="43.89311" lon="7.1672">
        <ele>1239</ele>
        <time>2012-05-10T07:39:31Z</time>
      </trkpt>
      <trkpt lat="43.89315" lon="7.16717">
        <ele>1239</ele>
        <time>2012-05-10T07:39:38Z</time>
      </trkpt>
      <trkpt lat="43.8932" lon="7.16714">
        <ele>1240</ele>
        <time>2012-05-10T07:39:43Z</time>
      </trkpt>
      <trkpt lat="43.89321" lon="7.16711">
        <ele>1240</ele>
        <time>2012-05-10T07:39:50Z</time>
      </trkpt>
      <trkpt lat="43.89325" lon="7.16717">
        <ele>1241</ele>
        <time>2012-05-10T07:39:53Z</time>
      </trkpt>
      <trkpt lat="43.89331" lon="7.1672">
        <ele>1241</ele>
        <time>2012-05-10T07:39:56Z</time>
      </trkpt>
      <trkpt lat="43.89336" lon="7.16721">
        <ele>1242</ele>
        <time>2012-05-10T07:39:59Z</time>
      </trkpt>
      <trkpt lat="43.89355" lon="7.16726">
        <ele>1246</ele>
        <time>2012-05-10T07:40:21Z</time>
      </trkpt>
      <trkpt lat="43.89356" lon="7.16718">
        <ele>1247</ele>
        <time>2012-05-10T07:40:25Z</time>
      </trkpt>
      <trkpt lat="43.89361" lon="7.16715">
        <ele>1247</ele>
        <time>2012-05-10T07:40:31Z</time>
      </trkpt>
      <trkpt lat="43.89366" lon="7.16715">
        <ele>1244</ele>
        <time>2012-05-10T07:40:36Z</time>
      </trkpt>
      <trkpt lat="43.89371" lon="7.16712">
        <ele>1244</ele>
        <time>2012-05-10T07:40:40Z</time>
      </trkpt>
      <trkpt lat="43.89393" lon="7.16662">
        <ele>1236</ele>
        <time>2012-05-10T07:41:15Z</time>
      </trkpt>
      <trkpt lat="43.89394" lon="7.16655">
        <ele>1236</ele>
        <time>2012-05-10T07:41:18Z</time>
      </trkpt>
      <trkpt lat="43.89392" lon="7.16647">
        <ele>1236</ele>
        <time>2012-05-10T07:41:21Z</time>
      </trkpt>
      <trkpt lat="43.89395" lon="7.16634">
        <ele>1234</ele>
        <time>2012-05-10T07:41:26Z</time>
      </trkpt>
      <trkpt lat="43.894" lon="7.1663">
        <ele>1234</ele>
        <time>2012-05-10T07:41:32Z</time>
      </trkpt>
      <trkpt lat="43.89404" lon="7.16625">
        <ele>1236</ele>
        <time>2012-05-10T07:41:35Z</time>
      </trkpt>
      <trkpt lat="43.89413" lon="7.16618">
        <ele>1237</ele>
        <time>2012-05-10T07:41:45Z</time>
      </trkpt>
      <trkpt lat="43.89416" lon="7.16613">
        <ele>1237</ele>
        <time>2012-05-10T07:41:48Z</time>
      </trkpt>
      <trkpt lat="43.89426" lon="7.16597">
        <ele>1234</ele>
        <time>2012-05-10T07:42:03Z</time>
      </trkpt>
      <trkpt lat="43.89443" lon="7.16571">
        <ele>1240</ele>
        <time>2012-05-10T07:42:33Z</time>
      </trkpt>
      <trkpt lat="43.89447" lon="7.16567">
        <ele>1240</ele>
        <time>2012-05-10T07:42:37Z</time>
      </trkpt>
      <trkpt lat="43.8945" lon="7.16562">
        <ele>1240</ele>
        <time>2012-05-10T07:42:41Z</time>
      </trkpt>
      <trkpt lat="43.89454" lon="7.16558">
        <ele>1241</ele>
        <time>2012-05-10T07:42:46Z</time>
      </trkpt>
      <trkpt lat="43.8946" lon="7.1656">
        <ele>1243</ele>
        <time>2012-05-10T07:42:55Z</time>
      </trkpt>
      <trkpt lat="43.89465" lon="7.16558">
        <ele>1242</ele>
        <time>2012-05-10T07:42:58Z</time>
      </trkpt>
      <trkpt lat="43.8947" lon="7.16558">
        <ele>1242</ele>
        <time>2012-05-10T07:43:01Z</time>
      </trkpt>
      <trkpt lat="43.89484" lon="7.16535">
        <ele>1244</ele>
        <time>2012-05-10T07:43:25Z</time>
      </trkpt>
      <trkpt lat="43.89492" lon="7.16525">
        <ele>1248</ele>
        <time>2012-05-10T07:43:35Z</time>
      </trkpt>
      <trkpt lat="43.89491" lon="7.16518">
        <ele>1250</ele>
        <time>2012-05-10T07:43:40Z</time>
      </trkpt>
      <trkpt lat="43.89487" lon="7.16514">
        <ele>1250</ele>
        <time>2012-05-10T07:43:45Z</time>
      </trkpt>
      <trkpt lat="43.89488" lon="7.16507">
        <ele>1250</ele>
        <time>2012-05-10T07:43:49Z</time>
      </trkpt>
      <trkpt lat="43.89489" lon="7.16499">
        <ele>1249</ele>
        <time>2012-05-10T07:43:56Z</time>
      </trkpt>
      <trkpt lat="43.89487" lon="7.16493">
        <ele>1248</ele>
        <time>2012-05-10T07:44:01Z</time>
      </trkpt>
      <trkpt lat="43.89487" lon="7.16486">
        <ele>1248</ele>
        <time>2012-05-10T07:44:09Z</time>
      </trkpt>
      <trkpt lat="43.89484" lon="7.1648">
        <ele>1249</ele>
        <time>2012-05-10T07:44:16Z</time>
      </trkpt>
      <trkpt lat="43.89479" lon="7.16474">
        <ele>1248</ele>
        <time>2012-05-10T07:44:19Z</time>
      </trkpt>
      <trkpt lat="43.89477" lon="7.16468">
        <ele>1246</ele>
        <time>2012-05-10T07:44:28Z</time>
      </trkpt>
      <trkpt lat="43.89475" lon="7.1646">
        <ele>1245</ele>
        <time>2012-05-10T07:44:41Z</time>
      </trkpt>
      <trkpt lat="43.89472" lon="7.16453">
        <ele>1246</ele>
        <time>2012-05-10T07:44:46Z</time>
      </trkpt>
      <trkpt lat="43.89463" lon="7.16435">
        <ele>1248</ele>
        <time>2012-05-10T07:44:59Z</time>
      </trkpt>
      <trkpt lat="43.89454" lon="7.16427">
        <ele>1246</ele>
        <time>2012-05-10T07:45:07Z</time>
      </trkpt>
      <trkpt lat="43.89451" lon="7.16421">
        <ele>1246</ele>
        <time>2012-05-10T07:45:15Z</time>
      </trkpt>
      <trkpt lat="43.89439" lon="7.1639">
        <ele>1249</ele>
        <time>2012-05-10T07:45:49Z</time>
      </trkpt>
      <trkpt lat="43.89435" lon="7.16362">
        <ele>1255</ele>
        <time>2012-05-10T07:46:06Z</time>
      </trkpt>
      <trkpt lat="43.89436" lon="7.16355">
        <ele>1259</ele>
        <time>2012-05-10T07:46:16Z</time>
      </trkpt>
      <trkpt lat="43.89434" lon="7.16353">
        <ele>1261</ele>
        <time>2012-05-10T07:46:22Z</time>
      </trkpt>
      <trkpt lat="43.89436" lon="7.16347">
        <ele>1264</ele>
        <time>2012-05-10T07:46:31Z</time>
      </trkpt>
      <trkpt lat="43.89434" lon="7.16339">
        <ele>1269</ele>
        <time>2012-05-10T07:46:35Z</time>
      </trkpt>
      <trkpt lat="43.89432" lon="7.16333">
        <ele>1273</ele>
        <time>2012-05-10T07:46:41Z</time>
      </trkpt>
      <trkpt lat="43.89422" lon="7.16322">
        <ele>1277</ele>
        <time>2012-05-10T07:46:53Z</time>
      </trkpt>
      <trkpt lat="43.89419" lon="7.16307">
        <ele>1278</ele>
        <time>2012-05-10T07:47:00Z</time>
      </trkpt>
      <trkpt lat="43.89414" lon="7.16301">
        <ele>1277</ele>
        <time>2012-05-10T07:47:05Z</time>
      </trkpt>
      <trkpt lat="43.8941" lon="7.16296">
        <ele>1277</ele>
        <time>2012-05-10T07:47:08Z</time>
      </trkpt>
      <trkpt lat="43.89405" lon="7.16292">
        <ele>1278</ele>
        <time>2012-05-10T07:47:11Z</time>
      </trkpt>
      <trkpt lat="43.89406" lon="7.16286">
        <ele>1282</ele>
        <time>2012-05-10T07:47:20Z</time>
      </trkpt>
      <trkpt lat="43.89402" lon="7.16284">
        <ele>1283</ele>
        <time>2012-05-10T07:47:26Z</time>
      </trkpt>
      <trkpt lat="43.89397" lon="7.16284">
        <ele>1284</ele>
        <time>2012-05-10T07:47:32Z</time>
      </trkpt>
      <trkpt lat="43.89393" lon="7.16279">
        <ele>1285</ele>
        <time>2012-05-10T07:47:37Z</time>
      </trkpt>
      <trkpt lat="43.8939" lon="7.16273">
        <ele>1285</ele>
        <time>2012-05-10T07:47:40Z</time>
      </trkpt>
      <trkpt lat="43.89386" lon="7.16268">
        <ele>1282</ele>
        <time>2012-05-10T07:47:44Z</time>
      </trkpt>
      <trkpt lat="43.89385" lon="7.16261">
        <ele>1280</ele>
        <time>2012-05-10T07:47:48Z</time>
      </trkpt>
      <trkpt lat="43.89383" lon="7.16259">
        <ele>1278</ele>
        <time>2012-05-10T07:47:54Z</time>
      </trkpt>
      <trkpt lat="43.89386" lon="7.16254">
        <ele>1278</ele>
        <time>2012-05-10T07:48:01Z</time>
      </trkpt>
      <trkpt lat="43.89388" lon="7.16246">
        <ele>1278</ele>
        <time>2012-05-10T07:48:04Z</time>
      </trkpt>
      <trkpt lat="43.89388" lon="7.16239">
        <ele>1278</ele>
        <time>2012-05-10T07:48:08Z</time>
      </trkpt>
      <trkpt lat="43.89392" lon="7.16235">
        <ele>1280</ele>
        <time>2012-05-10T07:48:16Z</time>
      </trkpt>
      <trkpt lat="43.89393" lon="7.16226">
        <ele>1285</ele>
        <time>2012-05-10T07:48:30Z</time>
      </trkpt>
      <trkpt lat="43.89399" lon="7.16207">
        <ele>1291</ele>
        <time>2012-05-10T07:48:49Z</time>
      </trkpt>
      <trkpt lat="43.89401" lon="7.16187">
        <ele>1285</ele>
        <time>2012-05-10T07:49:07Z</time>
      </trkpt>
      <trkpt lat="43.89404" lon="7.16181">
        <ele>1285</ele>
        <time>2012-05-10T07:49:13Z</time>
      </trkpt>
      <trkpt lat="43.89407" lon="7.16174">
        <ele>1284</ele>
        <time>2012-05-10T07:49:17Z</time>
      </trkpt>
      <trkpt lat="43.89411" lon="7.16169">
        <ele>1288</ele>
        <time>2012-05-10T07:49:24Z</time>
      </trkpt>
      <trkpt lat="43.89412" lon="7.16159">
        <ele>1290</ele>
        <time>2012-05-10T07:49:36Z</time>
      </trkpt>
      <trkpt lat="43.89416" lon="7.16156">
        <ele>1293</ele>
        <time>2012-05-10T07:49:40Z</time>
      </trkpt>
      <trkpt lat="43.89418" lon="7.1615">
        <ele>1295</ele>
        <time>2012-05-10T07:49:46Z</time>
      </trkpt>
      <trkpt lat="43.89421" lon="7.16145">
        <ele>1296</ele>
        <time>2012-05-10T07:49:54Z</time>
      </trkpt>
      <trkpt lat="43.89427" lon="7.16129">
        <ele>1299</ele>
        <time>2012-05-10T07:50:14Z</time>
      </trkpt>
      <trkpt lat="43.89429" lon="7.16122">
        <ele>1300</ele>
        <time>2012-05-10T07:50:21Z</time>
      </trkpt>
      <trkpt lat="43.89429" lon="7.16114">
        <ele>1301</ele>
        <time>2012-05-10T07:50:28Z</time>
      </trkpt>
      <trkpt lat="43.89428" lon="7.16108">
        <ele>1301</ele>
        <time>2012-05-10T07:50:31Z</time>
      </trkpt>
      <trkpt lat="43.89425" lon="7.16102">
        <ele>1302</ele>
        <time>2012-05-10T07:50:33Z</time>
      </trkpt>
      <trkpt lat="43.89424" lon="7.16098">
        <ele>1307</ele>
        <time>2012-05-10T07:50:40Z</time>
      </trkpt>
      <trkpt lat="43.89425" lon="7.16092">
        <ele>1310</ele>
        <time>2012-05-10T07:50:51Z</time>
      </trkpt>
      <trkpt lat="43.89431" lon="7.16079">
        <ele>1317</ele>
        <time>2012-05-10T07:51:07Z</time>
      </trkpt>
      <trkpt lat="43.8943" lon="7.16076">
        <ele>1320</ele>
        <time>2012-05-10T07:51:14Z</time>
      </trkpt>
      <trkpt lat="43.89432" lon="7.16071">
        <ele>1322</ele>
        <time>2012-05-10T07:51:23Z</time>
      </trkpt>
      <trkpt lat="43.8943" lon="7.16057">
        <ele>1330</ele>
        <time>2012-05-10T07:51:42Z</time>
      </trkpt>
      <trkpt lat="43.89436" lon="7.16045">
        <ele>1333</ele>
        <time>2012-05-10T07:51:51Z</time>
      </trkpt>
      <trkpt lat="43.89441" lon="7.16045">
        <ele>1335</ele>
        <time>2012-05-10T07:51:53Z</time>
      </trkpt>
      <trkpt lat="43.89445" lon="7.1604">
        <ele>1337</ele>
        <time>2012-05-10T07:51:56Z</time>
      </trkpt>
      <trkpt lat="43.89447" lon="7.16034">
        <ele>1338</ele>
        <time>2012-05-10T07:52:03Z</time>
      </trkpt>
      <trkpt lat="43.89447" lon="7.16031">
        <ele>1337</ele>
        <time>2012-05-10T07:52:09Z</time>
      </trkpt>
      <trkpt lat="43.8945" lon="7.16024">
        <ele>1338</ele>
        <time>2012-05-10T07:52:20Z</time>
      </trkpt>
      <trkpt lat="43.8945" lon="7.16017">
        <ele>1337</ele>
        <time>2012-05-10T07:52:26Z</time>
      </trkpt>
      <trkpt lat="43.8945" lon="7.16013">
        <ele>1337</ele>
        <time>2012-05-10T07:52:32Z</time>
      </trkpt>
      <trkpt lat="43.89457" lon="7.16006">
        <ele>1337</ele>
        <time>2012-05-10T07:52:44Z</time>
      </trkpt>
      <trkpt lat="43.89453" lon="7.15999">
        <ele>1335</ele>
        <time>2012-05-10T07:52:50Z</time>
      </trkpt>
      <trkpt lat="43.89454" lon="7.15992">
        <ele>1334</ele>
        <time>2012-05-10T07:52:53Z</time>
      </trkpt>
      <trkpt lat="43.89451" lon="7.15987">
        <ele>1334</ele>
        <time>2012-05-10T07:52:58Z</time>
      </trkpt>
      <trkpt lat="43.89454" lon="7.15981">
        <ele>1334</ele>
        <time>2012-05-10T07:53:06Z</time>
      </trkpt>
      <trkpt lat="43.89457" lon="7.15976">
        <ele>1335</ele>
        <time>2012-05-10T07:53:10Z</time>
      </trkpt>
      <trkpt lat="43.89458" lon="7.15969">
        <ele>1335</ele>
        <time>2012-05-10T07:53:16Z</time>
      </trkpt>
      <trkpt lat="43.89457" lon="7.15961">
        <ele>1336</ele>
        <time>2012-05-10T07:53:22Z</time>
      </trkpt>
      <trkpt lat="43.89452" lon="7.15956">
        <ele>1335</ele>
        <time>2012-05-10T07:53:27Z</time>
      </trkpt>
      <trkpt lat="43.89449" lon="7.1595">
        <ele>1335</ele>
        <time>2012-05-10T07:53:30Z</time>
      </trkpt>
      <trkpt lat="43.89449" lon="7.15943">
        <ele>1335</ele>
        <time>2012-05-10T07:53:35Z</time>
      </trkpt>
      <trkpt lat="43.8945" lon="7.15934">
        <ele>1338</ele>
        <time>2012-05-10T07:53:52Z</time>
      </trkpt>
      <trkpt lat="43.89454" lon="7.15932">
        <ele>1341</ele>
        <time>2012-05-10T07:54:02Z</time>
      </trkpt>
      <trkpt lat="43.89458" lon="7.15926">
        <ele>1342</ele>
        <time>2012-05-10T07:54:09Z</time>
      </trkpt>
      <trkpt lat="43.8946" lon="7.1592">
        <ele>1342</ele>
        <time>2012-05-10T07:54:15Z</time>
      </trkpt>
      <trkpt lat="43.89469" lon="7.15908">
        <ele>1347</ele>
        <time>2012-05-10T07:54:38Z</time>
      </trkpt>
      <trkpt lat="43.89474" lon="7.15908">
        <ele>1349</ele>
        <time>2012-05-10T07:54:40Z</time>
      </trkpt>
      <trkpt lat="43.8948" lon="7.15909">
        <ele>1348</ele>
        <time>2012-05-10T07:54:43Z</time>
      </trkpt>
      <trkpt lat="43.89484" lon="7.15907">
        <ele>1348</ele>
        <time>2012-05-10T07:54:46Z</time>
      </trkpt>
      <trkpt lat="43.89488" lon="7.15901">
        <ele>1349</ele>
        <time>2012-05-10T07:54:51Z</time>
      </trkpt>
      <trkpt lat="43.89492" lon="7.15888">
        <ele>1351</ele>
        <time>2012-05-10T07:55:03Z</time>
      </trkpt>
      <trkpt lat="43.89493" lon="7.15882">
        <ele>1350</ele>
        <time>2012-05-10T07:55:08Z</time>
      </trkpt>
      <trkpt lat="43.89497" lon="7.15878">
        <ele>1350</ele>
        <time>2012-05-10T07:55:12Z</time>
      </trkpt>
      <trkpt lat="43.89502" lon="7.15875">
        <ele>1352</ele>
        <time>2012-05-10T07:55:18Z</time>
      </trkpt>
      <trkpt lat="43.89507" lon="7.15878">
        <ele>1354</ele>
        <time>2012-05-10T07:55:21Z</time>
      </trkpt>
      <trkpt lat="43.89513" lon="7.15887">
        <ele>1357</ele>
        <time>2012-05-10T07:55:34Z</time>
      </trkpt>
      <trkpt lat="43.89519" lon="7.15885">
        <ele>1358</ele>
        <time>2012-05-10T07:55:42Z</time>
      </trkpt>
      <trkpt lat="43.89528" lon="7.15881">
        <ele>1361</ele>
        <time>2012-05-10T07:55:46Z</time>
      </trkpt>
      <trkpt lat="43.8953" lon="7.15876">
        <ele>1363</ele>
        <time>2012-05-10T07:55:54Z</time>
      </trkpt>
      <trkpt lat="43.89533" lon="7.15878">
        <ele>1364</ele>
        <time>2012-05-10T07:56:03Z</time>
      </trkpt>
      <trkpt lat="43.89533" lon="7.15875">
        <ele>1366</ele>
        <time>2012-05-10T07:56:22Z</time>
      </trkpt>
      <trkpt lat="43.89531" lon="7.15868">
        <ele>1366</ele>
        <time>2012-05-10T07:56:26Z</time>
      </trkpt>
      <trkpt lat="43.89531" lon="7.15861">
        <ele>1366</ele>
        <time>2012-05-10T07:56:30Z</time>
      </trkpt>
      <trkpt lat="43.89531" lon="7.15854">
        <ele>1366</ele>
        <time>2012-05-10T07:56:38Z</time>
      </trkpt>
      <trkpt lat="43.89537" lon="7.15856">
        <ele>1366</ele>
        <time>2012-05-10T07:56:44Z</time>
      </trkpt>
      <trkpt lat="43.89551" lon="7.15851">
        <ele>1368</ele>
        <time>2012-05-10T07:57:08Z</time>
      </trkpt>
      <trkpt lat="43.89567" lon="7.1584">
        <ele>1378</ele>
        <time>2012-05-10T07:57:34Z</time>
      </trkpt>
      <trkpt lat="43.89575" lon="7.15828">
        <ele>1378</ele>
        <time>2012-05-10T07:58:00Z</time>
      </trkpt>
      <trkpt lat="43.89579" lon="7.15825">
        <ele>1378</ele>
        <time>2012-05-10T07:58:05Z</time>
      </trkpt>
      <trkpt lat="43.89589" lon="7.15822">
        <ele>1380</ele>
        <time>2012-05-10T07:58:13Z</time>
      </trkpt>
      <trkpt lat="43.89591" lon="7.15816">
        <ele>1381</ele>
        <time>2012-05-10T07:58:23Z</time>
      </trkpt>
      <trkpt lat="43.89593" lon="7.15814">
        <ele>1382</ele>
        <time>2012-05-10T07:58:29Z</time>
      </trkpt>
      <trkpt lat="43.89598" lon="7.15813">
        <ele>1382</ele>
        <time>2012-05-10T07:58:33Z</time>
      </trkpt>
      <trkpt lat="43.89602" lon="7.15808">
        <ele>1381</ele>
        <time>2012-05-10T07:58:37Z</time>
      </trkpt>
      <trkpt lat="43.89604" lon="7.158">
        <ele>1380</ele>
        <time>2012-05-10T07:58:45Z</time>
      </trkpt>
      <trkpt lat="43.89607" lon="7.15787">
        <ele>1385</ele>
        <time>2012-05-10T07:58:59Z</time>
      </trkpt>
      <trkpt lat="43.89611" lon="7.15784">
        <ele>1387</ele>
        <time>2012-05-10T07:59:06Z</time>
      </trkpt>
      <trkpt lat="43.89622" lon="7.15784">
        <ele>1389</ele>
        <time>2012-05-10T07:59:14Z</time>
      </trkpt>
      <trkpt lat="43.89628" lon="7.15782">
        <ele>1389</ele>
        <time>2012-05-10T07:59:18Z</time>
      </trkpt>
      <trkpt lat="43.89635" lon="7.15773">
        <ele>1391</ele>
        <time>2012-05-10T07:59:26Z</time>
      </trkpt>
      <trkpt lat="43.8965" lon="7.15769">
        <ele>1397</ele>
        <time>2012-05-10T07:59:39Z</time>
      </trkpt>
      <trkpt lat="43.89651" lon="7.15768">
        <ele>1404</ele>
        <time>2012-05-10T07:59:52Z</time>
      </trkpt>
      <trkpt lat="43.89657" lon="7.15766">
        <ele>1406</ele>
        <time>2012-05-10T07:59:58Z</time>
      </trkpt>
      <trkpt lat="43.89661" lon="7.15766">
        <ele>1408</ele>
        <time>2012-05-10T08:00:06Z</time>
      </trkpt>
      <trkpt lat="43.89665" lon="7.15762">
        <ele>1407</ele>
        <time>2012-05-10T08:00:11Z</time>
      </trkpt>
      <trkpt lat="43.8967" lon="7.15761">
        <ele>1405</ele>
        <time>2012-05-10T08:00:15Z</time>
      </trkpt>
      <trkpt lat="43.89675" lon="7.15764">
        <ele>1405</ele>
        <time>2012-05-10T08:00:19Z</time>
      </trkpt>
      <trkpt lat="43.89684" lon="7.15758">
        <ele>1403</ele>
        <time>2012-05-10T08:00:32Z</time>
      </trkpt>
      <trkpt lat="43.89694" lon="7.15755">
        <ele>1406</ele>
        <time>2012-05-10T08:00:43Z</time>
      </trkpt>
      <trkpt lat="43.89699" lon="7.15753">
        <ele>1406</ele>
        <time>2012-05-10T08:00:46Z</time>
      </trkpt>
      <trkpt lat="43.89703" lon="7.15748">
        <ele>1406</ele>
        <time>2012-05-10T08:00:50Z</time>
      </trkpt>
      <trkpt lat="43.89708" lon="7.15747">
        <ele>1407</ele>
        <time>2012-05-10T08:00:57Z</time>
      </trkpt>
      <trkpt lat="43.89712" lon="7.15751">
        <ele>1409</ele>
        <time>2012-05-10T08:01:04Z</time>
      </trkpt>
      <trkpt lat="43.89717" lon="7.15747">
        <ele>1411</ele>
        <time>2012-05-10T08:01:12Z</time>
      </trkpt>
      <trkpt lat="43.89719" lon="7.15741">
        <ele>1411</ele>
        <time>2012-05-10T08:01:16Z</time>
      </trkpt>
      <trkpt lat="43.89724" lon="7.15737">
        <ele>1411</ele>
        <time>2012-05-10T08:01:22Z</time>
      </trkpt>
      <trkpt lat="43.89727" lon="7.15735">
        <ele>1411</ele>
        <time>2012-05-10T08:01:31Z</time>
      </trkpt>
      <trkpt lat="43.89729" lon="7.15743">
        <ele>1410</ele>
        <time>2012-05-10T08:01:41Z</time>
      </trkpt>
      <trkpt lat="43.89731" lon="7.15743">
        <ele>1407</ele>
        <time>2012-05-10T08:01:56Z</time>
      </trkpt>
      <trkpt lat="43.8973" lon="7.15745">
        <ele>1404</ele>
        <time>2012-05-10T08:03:15Z</time>
      </trkpt>
      <trkpt lat="43.89732" lon="7.15749">
        <ele>1404</ele>
        <time>2012-05-10T08:04:05Z</time>
      </trkpt>
      <trkpt lat="43.89732" lon="7.15743">
        <ele>1405</ele>
        <time>2012-05-10T08:04:36Z</time>
      </trkpt>
      <trkpt lat="43.89733" lon="7.15746">
        <ele>1407</ele>
        <time>2012-05-10T08:05:51Z</time>
      </trkpt>
      <trkpt lat="43.89732" lon="7.15753">
        <ele>1407</ele>
        <time>2012-05-10T08:05:58Z</time>
      </trkpt>
      <trkpt lat="43.89732" lon="7.15748">
        <ele>1407</ele>
        <time>2012-05-10T08:06:42Z</time>
      </trkpt>
      <trkpt lat="43.89729" lon="7.15749">
        <ele>1408</ele>
        <time>2012-05-10T08:08:05Z</time>
      </trkpt>
      <trkpt lat="43.89726" lon="7.15741">
        <ele>1408</ele>
        <time>2012-05-10T08:08:35Z</time>
      </trkpt>
      <trkpt lat="43.89727" lon="7.1574">
        <ele>1413</ele>
        <time>2012-05-10T08:10:22Z</time>
      </trkpt>
      <trkpt lat="43.8973" lon="7.15744">
        <ele>1414</ele>
        <time>2012-05-10T08:17:35Z</time>
      </trkpt>
      <trkpt lat="43.89727" lon="7.15745">
        <ele>1416</ele>
        <time>2012-05-10T08:19:21Z</time>
      </trkpt>
      <trkpt lat="43.89728" lon="7.1574">
        <ele>1416</ele>
        <time>2012-05-10T08:19:48Z</time>
      </trkpt>
      <trkpt lat="43.89731" lon="7.15741">
        <ele>1414</ele>
        <time>2012-05-10T08:22:02Z</time>
      </trkpt>
      <trkpt lat="43.89735" lon="7.15735">
        <ele>1415</ele>
        <time>2012-05-10T08:22:40Z</time>
      </trkpt>
      <trkpt lat="43.8973" lon="7.15732">
        <ele>1419</ele>
        <time>2012-05-10T08:22:48Z</time>
      </trkpt>
      <trkpt lat="43.89727" lon="7.15723">
        <ele>1420</ele>
        <time>2012-05-10T08:22:50Z</time>
      </trkpt>
      <trkpt lat="43.89727" lon="7.15727">
        <ele>1418</ele>
        <time>2012-05-10T08:23:06Z</time>
      </trkpt>
      <trkpt lat="43.8973" lon="7.15731">
        <ele>1417</ele>
        <time>2012-05-10T08:23:16Z</time>
      </trkpt>
      <trkpt lat="43.8973" lon="7.15735">
        <ele>1417</ele>
        <time>2012-05-10T08:23:22Z</time>
      </trkpt>
      <trkpt lat="43.89729" lon="7.15738">
        <ele>1416</ele>
        <time>2012-05-10T08:23:29Z</time>
      </trkpt>
      <trkpt lat="43.8973" lon="7.15742">
        <ele>1414</ele>
        <time>2012-05-10T08:24:51Z</time>
      </trkpt>
      <trkpt lat="43.89731" lon="7.1574">
        <ele>1413</ele>
        <time>2012-05-10T08:26:11Z</time>
      </trkpt>
      <trkpt lat="43.89731" lon="7.15735">
        <ele>1414</ele>
        <time>2012-05-10T08:28:20Z</time>
      </trkpt>
      <trkpt lat="43.89725" lon="7.15734">
        <ele>1413</ele>
        <time>2012-05-10T08:28:26Z</time>
      </trkpt>
      <trkpt lat="43.89721" lon="7.15731">
        <ele>1410</ele>
        <time>2012-05-10T08:28:30Z</time>
      </trkpt>
      <trkpt lat="43.89716" lon="7.15725">
        <ele>1409</ele>
        <time>2012-05-10T08:28:42Z</time>
      </trkpt>
      <trkpt lat="43.89711" lon="7.15723">
        <ele>1410</ele>
        <time>2012-05-10T08:28:45Z</time>
      </trkpt>
      <trkpt lat="43.89709" lon="7.15716">
        <ele>1410</ele>
        <time>2012-05-10T08:28:49Z</time>
      </trkpt>
      <trkpt lat="43.89702" lon="7.15707">
        <ele>1411</ele>
        <time>2012-05-10T08:28:56Z</time>
      </trkpt>
      <trkpt lat="43.89696" lon="7.15697">
        <ele>1413</ele>
        <time>2012-05-10T08:29:04Z</time>
      </trkpt>
      <trkpt lat="43.89699" lon="7.15691">
        <ele>1414</ele>
        <time>2012-05-10T08:29:09Z</time>
      </trkpt>
      <trkpt lat="43.89696" lon="7.15683">
        <ele>1415</ele>
        <time>2012-05-10T08:29:15Z</time>
      </trkpt>
      <trkpt lat="43.89687" lon="7.15673">
        <ele>1418</ele>
        <time>2012-05-10T08:29:22Z</time>
      </trkpt>
      <trkpt lat="43.8969" lon="7.15666">
        <ele>1419</ele>
        <time>2012-05-10T08:29:25Z</time>
      </trkpt>
      <trkpt lat="43.89691" lon="7.1564">
        <ele>1425</ele>
        <time>2012-05-10T08:29:45Z</time>
      </trkpt>
      <trkpt lat="43.89691" lon="7.15633">
        <ele>1425</ele>
        <time>2012-05-10T08:29:48Z</time>
      </trkpt>
      <trkpt lat="43.89689" lon="7.15627">
        <ele>1425</ele>
        <time>2012-05-10T08:29:52Z</time>
      </trkpt>
      <trkpt lat="43.89686" lon="7.15619">
        <ele>1426</ele>
        <time>2012-05-10T08:29:57Z</time>
      </trkpt>
      <trkpt lat="43.89681" lon="7.15615">
        <ele>1425</ele>
        <time>2012-05-10T08:30:00Z</time>
      </trkpt>
      <trkpt lat="43.89679" lon="7.15607">
        <ele>1425</ele>
        <time>2012-05-10T08:30:04Z</time>
      </trkpt>
      <trkpt lat="43.89678" lon="7.156">
        <ele>1424</ele>
        <time>2012-05-10T08:30:09Z</time>
      </trkpt>
      <trkpt lat="43.89678" lon="7.15592">
        <ele>1425</ele>
        <time>2012-05-10T08:30:13Z</time>
      </trkpt>
      <trkpt lat="43.8968" lon="7.15585">
        <ele>1426</ele>
        <time>2012-05-10T08:30:16Z</time>
      </trkpt>
      <trkpt lat="43.89679" lon="7.15577">
        <ele>1427</ele>
        <time>2012-05-10T08:30:20Z</time>
      </trkpt>
      <trkpt lat="43.89677" lon="7.1557">
        <ele>1427</ele>
        <time>2012-05-10T08:30:24Z</time>
      </trkpt>
      <trkpt lat="43.89679" lon="7.15563">
        <ele>1426</ele>
        <time>2012-05-10T08:30:28Z</time>
      </trkpt>
      <trkpt lat="43.89677" lon="7.15556">
        <ele>1424</ele>
        <time>2012-05-10T08:30:34Z</time>
      </trkpt>
      <trkpt lat="43.89672" lon="7.15553">
        <ele>1424</ele>
        <time>2012-05-10T08:30:36Z</time>
      </trkpt>
      <trkpt lat="43.89665" lon="7.15549">
        <ele>1422</ele>
        <time>2012-05-10T08:30:39Z</time>
      </trkpt>
      <trkpt lat="43.89662" lon="7.15545">
        <ele>1422</ele>
        <time>2012-05-10T08:30:41Z</time>
      </trkpt>
      <trkpt lat="43.8966" lon="7.15538">
        <ele>1423</ele>
        <time>2012-05-10T08:30:44Z</time>
      </trkpt>
      <trkpt lat="43.89663" lon="7.15532">
        <ele>1424</ele>
        <time>2012-05-10T08:30:47Z</time>
      </trkpt>
      <trkpt lat="43.89672" lon="7.15513">
        <ele>1427</ele>
        <time>2012-05-10T08:30:57Z</time>
      </trkpt>
      <trkpt lat="43.8967" lon="7.15506">
        <ele>1428</ele>
        <time>2012-05-10T08:31:01Z</time>
      </trkpt>
      <trkpt lat="43.89667" lon="7.15499">
        <ele>1427</ele>
        <time>2012-05-10T08:31:05Z</time>
      </trkpt>
      <trkpt lat="43.89664" lon="7.15492">
        <ele>1429</ele>
        <time>2012-05-10T08:31:09Z</time>
      </trkpt>
      <trkpt lat="43.89663" lon="7.15477">
        <ele>1431</ele>
        <time>2012-05-10T08:31:17Z</time>
      </trkpt>
      <trkpt lat="43.89659" lon="7.15472">
        <ele>1432</ele>
        <time>2012-05-10T08:31:22Z</time>
      </trkpt>
      <trkpt lat="43.89651" lon="7.15461">
        <ele>1432</ele>
        <time>2012-05-10T08:31:28Z</time>
      </trkpt>
      <trkpt lat="43.89649" lon="7.15455">
        <ele>1432</ele>
        <time>2012-05-10T08:31:31Z</time>
      </trkpt>
      <trkpt lat="43.89644" lon="7.1545">
        <ele>1431</ele>
        <time>2012-05-10T08:31:36Z</time>
      </trkpt>
      <trkpt lat="43.89641" lon="7.15445">
        <ele>1431</ele>
        <time>2012-05-10T08:31:40Z</time>
      </trkpt>
      <trkpt lat="43.89634" lon="7.15434">
        <ele>1428</ele>
        <time>2012-05-10T08:31:51Z</time>
      </trkpt>
      <trkpt lat="43.89626" lon="7.15431">
        <ele>1426</ele>
        <time>2012-05-10T08:32:01Z</time>
      </trkpt>
      <trkpt lat="43.89598" lon="7.15432">
        <ele>1434</ele>
        <time>2012-05-10T08:32:35Z</time>
      </trkpt>
      <trkpt lat="43.89589" lon="7.15429">
        <ele>1439</ele>
        <time>2012-05-10T08:32:48Z</time>
      </trkpt>
      <trkpt lat="43.8959" lon="7.15424">
        <ele>1443</ele>
        <time>2012-05-10T08:33:02Z</time>
      </trkpt>
      <trkpt lat="43.89594" lon="7.15421">
        <ele>1447</ele>
        <time>2012-05-10T08:33:09Z</time>
      </trkpt>
      <trkpt lat="43.89608" lon="7.15389">
        <ele>1455</ele>
        <time>2012-05-10T08:33:34Z</time>
      </trkpt>
      <trkpt lat="43.89606" lon="7.15383">
        <ele>1455</ele>
        <time>2012-05-10T08:33:40Z</time>
      </trkpt>
      <trkpt lat="43.89601" lon="7.15383">
        <ele>1454</ele>
        <time>2012-05-10T08:33:46Z</time>
      </trkpt>
      <trkpt lat="43.89595" lon="7.15386">
        <ele>1452</ele>
        <time>2012-05-10T08:33:59Z</time>
      </trkpt>
      <trkpt lat="43.89591" lon="7.1539">
        <ele>1453</ele>
        <time>2012-05-10T08:34:03Z</time>
      </trkpt>
      <trkpt lat="43.89586" lon="7.1539">
        <ele>1453</ele>
        <time>2012-05-10T08:34:08Z</time>
      </trkpt>
      <trkpt lat="43.89566" lon="7.15396">
        <ele>1459</ele>
        <time>2012-05-10T08:34:31Z</time>
      </trkpt>
      <trkpt lat="43.89572" lon="7.15395">
        <ele>1462</ele>
        <time>2012-05-10T08:34:41Z</time>
      </trkpt>
      <trkpt lat="43.89575" lon="7.1539">
        <ele>1465</ele>
        <time>2012-05-10T08:34:47Z</time>
      </trkpt>
      <trkpt lat="43.89579" lon="7.15378">
        <ele>1467</ele>
        <time>2012-05-10T08:34:57Z</time>
      </trkpt>
      <trkpt lat="43.89586" lon="7.15368">
        <ele>1468</ele>
        <time>2012-05-10T08:35:09Z</time>
      </trkpt>
      <trkpt lat="43.89583" lon="7.15363">
        <ele>1467</ele>
        <time>2012-05-10T08:35:15Z</time>
      </trkpt>
      <trkpt lat="43.89578" lon="7.15367">
        <ele>1467</ele>
        <time>2012-05-10T08:35:19Z</time>
      </trkpt>
      <trkpt lat="43.89575" lon="7.15372">
        <ele>1468</ele>
        <time>2012-05-10T08:35:24Z</time>
      </trkpt>
      <trkpt lat="43.8957" lon="7.1537">
        <ele>1468</ele>
        <time>2012-05-10T08:35:29Z</time>
      </trkpt>
      <trkpt lat="43.89546" lon="7.15381">
        <ele>1477</ele>
        <time>2012-05-10T08:36:01Z</time>
      </trkpt>
      <trkpt lat="43.89546" lon="7.15386">
        <ele>1478</ele>
        <time>2012-05-10T08:36:19Z</time>
      </trkpt>
      <trkpt lat="43.89541" lon="7.15384">
        <ele>1478</ele>
        <time>2012-05-10T08:36:25Z</time>
      </trkpt>
      <trkpt lat="43.89536" lon="7.15383">
        <ele>1480</ele>
        <time>2012-05-10T08:36:30Z</time>
      </trkpt>
      <trkpt lat="43.89533" lon="7.15381">
        <ele>1481</ele>
        <time>2012-05-10T08:36:41Z</time>
      </trkpt>
      <trkpt lat="43.89532" lon="7.15374">
        <ele>1484</ele>
        <time>2012-05-10T08:36:48Z</time>
      </trkpt>
      <trkpt lat="43.89533" lon="7.15367">
        <ele>1488</ele>
        <time>2012-05-10T08:36:58Z</time>
      </trkpt>
      <trkpt lat="43.89535" lon="7.15358">
        <ele>1494</ele>
        <time>2012-05-10T08:37:32Z</time>
      </trkpt>
      <trkpt lat="43.89539" lon="7.15337">
        <ele>1501</ele>
        <time>2012-05-10T08:37:49Z</time>
      </trkpt>
      <trkpt lat="43.89541" lon="7.15331">
        <ele>1500</ele>
        <time>2012-05-10T08:37:53Z</time>
      </trkpt>
      <trkpt lat="43.89543" lon="7.15325">
        <ele>1502</ele>
        <time>2012-05-10T08:37:58Z</time>
      </trkpt>
      <trkpt lat="43.89544" lon="7.15318">
        <ele>1503</ele>
        <time>2012-05-10T08:38:02Z</time>
      </trkpt>
      <trkpt lat="43.89542" lon="7.15311">
        <ele>1503</ele>
        <time>2012-05-10T08:38:07Z</time>
      </trkpt>
      <trkpt lat="43.89545" lon="7.15305">
        <ele>1504</ele>
        <time>2012-05-10T08:38:11Z</time>
      </trkpt>
      <trkpt lat="43.8955" lon="7.15302">
        <ele>1507</ele>
        <time>2012-05-10T08:38:13Z</time>
      </trkpt>
      <trkpt lat="43.89546" lon="7.15298">
        <ele>1508</ele>
        <time>2012-05-10T08:38:21Z</time>
      </trkpt>
      <trkpt lat="43.89548" lon="7.15292">
        <ele>1509</ele>
        <time>2012-05-10T08:38:25Z</time>
      </trkpt>
      <trkpt lat="43.89544" lon="7.15292">
        <ele>1510</ele>
        <time>2012-05-10T08:38:38Z</time>
      </trkpt>
      <trkpt lat="43.89541" lon="7.15286">
        <ele>1511</ele>
        <time>2012-05-10T08:38:43Z</time>
      </trkpt>
      <trkpt lat="43.89543" lon="7.1528">
        <ele>1512</ele>
        <time>2012-05-10T08:38:48Z</time>
      </trkpt>
      <trkpt lat="43.89548" lon="7.15276">
        <ele>1514</ele>
        <time>2012-05-10T08:38:52Z</time>
      </trkpt>
      <trkpt lat="43.8955" lon="7.1527">
        <ele>1516</ele>
        <time>2012-05-10T08:38:57Z</time>
      </trkpt>
      <trkpt lat="43.89547" lon="7.15257">
        <ele>1517</ele>
        <time>2012-05-10T08:39:04Z</time>
      </trkpt>
      <trkpt lat="43.89545" lon="7.1525">
        <ele>1517</ele>
        <time>2012-05-10T08:39:10Z</time>
      </trkpt>
      <trkpt lat="43.89549" lon="7.15244">
        <ele>1518</ele>
        <time>2012-05-10T08:39:14Z</time>
      </trkpt>
      <trkpt lat="43.89552" lon="7.15239">
        <ele>1518</ele>
        <time>2012-05-10T08:39:17Z</time>
      </trkpt>
      <trkpt lat="43.89554" lon="7.15233">
        <ele>1519</ele>
        <time>2012-05-10T08:39:22Z</time>
      </trkpt>
      <trkpt lat="43.89554" lon="7.15224">
        <ele>1519</ele>
        <time>2012-05-10T08:39:27Z</time>
      </trkpt>
      <trkpt lat="43.89554" lon="7.15203">
        <ele>1517</ele>
        <time>2012-05-10T08:39:43Z</time>
      </trkpt>
      <trkpt lat="43.89557" lon="7.15196">
        <ele>1518</ele>
        <time>2012-05-10T08:39:47Z</time>
      </trkpt>
      <trkpt lat="43.89562" lon="7.1519">
        <ele>1518</ele>
        <time>2012-05-10T08:39:51Z</time>
      </trkpt>
      <trkpt lat="43.89565" lon="7.15185">
        <ele>1520</ele>
        <time>2012-05-10T08:39:56Z</time>
      </trkpt>
      <trkpt lat="43.89566" lon="7.15178">
        <ele>1520</ele>
        <time>2012-05-10T08:40:01Z</time>
      </trkpt>
      <trkpt lat="43.89564" lon="7.15172">
        <ele>1520</ele>
        <time>2012-05-10T08:40:05Z</time>
      </trkpt>
      <trkpt lat="43.89564" lon="7.15165">
        <ele>1522</ele>
        <time>2012-05-10T08:40:15Z</time>
      </trkpt>
      <trkpt lat="43.89556" lon="7.15149">
        <ele>1528</ele>
        <time>2012-05-10T08:40:42Z</time>
      </trkpt>
      <trkpt lat="43.8955" lon="7.15137">
        <ele>1525</ele>
        <time>2012-05-10T08:40:48Z</time>
      </trkpt>
      <trkpt lat="43.89551" lon="7.1514">
        <ele>1527</ele>
        <time>2012-05-10T08:40:54Z</time>
      </trkpt>
      <trkpt lat="43.89556" lon="7.1514">
        <ele>1528</ele>
        <time>2012-05-10T08:41:00Z</time>
      </trkpt>
      <trkpt lat="43.89565" lon="7.1513">
        <ele>1531</ele>
        <time>2012-05-10T08:41:07Z</time>
      </trkpt>
      <trkpt lat="43.89572" lon="7.15119">
        <ele>1531</ele>
        <time>2012-05-10T08:41:16Z</time>
      </trkpt>
      <trkpt lat="43.89581" lon="7.15114">
        <ele>1533</ele>
        <time>2012-05-10T08:41:32Z</time>
      </trkpt>
      <trkpt lat="43.8959" lon="7.15097">
        <ele>1536</ele>
        <time>2012-05-10T08:41:49Z</time>
      </trkpt>
      <trkpt lat="43.89594" lon="7.15091">
        <ele>1537</ele>
        <time>2012-05-10T08:41:54Z</time>
      </trkpt>
      <trkpt lat="43.89599" lon="7.15079">
        <ele>1538</ele>
        <time>2012-05-10T08:42:03Z</time>
      </trkpt>
      <trkpt lat="43.89602" lon="7.15074">
        <ele>1538</ele>
        <time>2012-05-10T08:42:13Z</time>
      </trkpt>
      <trkpt lat="43.89604" lon="7.15068">
        <ele>1536</ele>
        <time>2012-05-10T08:42:21Z</time>
      </trkpt>
      <trkpt lat="43.89605" lon="7.1506">
        <ele>1535</ele>
        <time>2012-05-10T08:42:28Z</time>
      </trkpt>
      <trkpt lat="43.89612" lon="7.15049">
        <ele>1534</ele>
        <time>2012-05-10T08:42:39Z</time>
      </trkpt>
      <trkpt lat="43.89616" lon="7.15044">
        <ele>1536</ele>
        <time>2012-05-10T08:42:46Z</time>
      </trkpt>
      <trkpt lat="43.89614" lon="7.15037">
        <ele>1536</ele>
        <time>2012-05-10T08:42:50Z</time>
      </trkpt>
      <trkpt lat="43.8961" lon="7.15032">
        <ele>1536</ele>
        <time>2012-05-10T08:42:59Z</time>
      </trkpt>
      <trkpt lat="43.89608" lon="7.15033">
        <ele>1536</ele>
        <time>2012-05-10T08:43:16Z</time>
      </trkpt>
      <trkpt lat="43.89603" lon="7.15037">
        <ele>1535</ele>
        <time>2012-05-10T08:43:21Z</time>
      </trkpt>
      <trkpt lat="43.89606" lon="7.15034">
        <ele>1538</ele>
        <time>2012-05-10T08:43:43Z</time>
      </trkpt>
      <trkpt lat="43.89608" lon="7.15035">
        <ele>1538</ele>
        <time>2012-05-10T08:43:49Z</time>
      </trkpt>
      <trkpt lat="43.89613" lon="7.15031">
        <ele>1539</ele>
        <time>2012-05-10T08:43:56Z</time>
      </trkpt>
      <trkpt lat="43.8961" lon="7.15025">
        <ele>1539</ele>
        <time>2012-05-10T08:44:01Z</time>
      </trkpt>
      <trkpt lat="43.89608" lon="7.15019">
        <ele>1539</ele>
        <time>2012-05-10T08:44:07Z</time>
      </trkpt>
      <trkpt lat="43.89613" lon="7.15017">
        <ele>1540</ele>
        <time>2012-05-10T08:44:11Z</time>
      </trkpt>
      <trkpt lat="43.89614" lon="7.1501">
        <ele>1543</ele>
        <time>2012-05-10T08:44:20Z</time>
      </trkpt>
      <trkpt lat="43.89611" lon="7.15006">
        <ele>1544</ele>
        <time>2012-05-10T08:45:10Z</time>
      </trkpt>
      <trkpt lat="43.89615" lon="7.14996">
        <ele>1548</ele>
        <time>2012-05-10T08:45:29Z</time>
      </trkpt>
      <trkpt lat="43.89611" lon="7.14992">
        <ele>1549</ele>
        <time>2012-05-10T08:45:37Z</time>
      </trkpt>
      <trkpt lat="43.89611" lon="7.14991">
        <ele>1552</ele>
        <time>2012-05-10T08:45:59Z</time>
      </trkpt>
      <trkpt lat="43.89616" lon="7.1499">
        <ele>1552</ele>
        <time>2012-05-10T08:46:08Z</time>
      </trkpt>
      <trkpt lat="43.89617" lon="7.14986">
        <ele>1551</ele>
        <time>2012-05-10T08:46:20Z</time>
      </trkpt>
      <trkpt lat="43.89619" lon="7.14981">
        <ele>1552</ele>
        <time>2012-05-10T08:46:29Z</time>
      </trkpt>
      <trkpt lat="43.89618" lon="7.14972">
        <ele>1554</ele>
        <time>2012-05-10T08:46:43Z</time>
      </trkpt>
      <trkpt lat="43.89618" lon="7.14965">
        <ele>1554</ele>
        <time>2012-05-10T08:46:48Z</time>
      </trkpt>
      <trkpt lat="43.89617" lon="7.14958">
        <ele>1554</ele>
        <time>2012-05-10T08:46:55Z</time>
      </trkpt>
      <trkpt lat="43.89621" lon="7.14954">
        <ele>1554</ele>
        <time>2012-05-10T08:47:00Z</time>
      </trkpt>
      <trkpt lat="43.89624" lon="7.14948">
        <ele>1554</ele>
        <time>2012-05-10T08:47:05Z</time>
      </trkpt>
      <trkpt lat="43.89625" lon="7.14943">
        <ele>1554</ele>
        <time>2012-05-10T08:47:14Z</time>
      </trkpt>
      <trkpt lat="43.89627" lon="7.14942">
        <ele>1556</ele>
        <time>2012-05-10T08:47:32Z</time>
      </trkpt>
      <trkpt lat="43.89629" lon="7.14936">
        <ele>1556</ele>
        <time>2012-05-10T08:47:38Z</time>
      </trkpt>
      <trkpt lat="43.8963" lon="7.1493">
        <ele>1556</ele>
        <time>2012-05-10T08:47:43Z</time>
      </trkpt>
      <trkpt lat="43.8963" lon="7.14926">
        <ele>1551</ele>
        <time>2012-05-10T09:31:20Z</time>
      </trkpt>
      <trkpt lat="43.89631" lon="7.14933">
        <ele>1551</ele>
        <time>2012-05-10T09:31:32Z</time>
      </trkpt>
      <trkpt lat="43.89631" lon="7.1494">
        <ele>1551</ele>
        <time>2012-05-10T09:31:43Z</time>
      </trkpt>
      <trkpt lat="43.89635" lon="7.1494">
        <ele>1552</ele>
        <time>2012-05-10T09:32:06Z</time>
      </trkpt>
      <trkpt lat="43.89639" lon="7.14935">
        <ele>1551</ele>
        <time>2012-05-10T09:32:13Z</time>
      </trkpt>
      <trkpt lat="43.89641" lon="7.14944">
        <ele>1551</ele>
        <time>2012-05-10T09:32:52Z</time>
      </trkpt>
      <trkpt lat="43.89641" lon="7.14947">
        <ele>1550</ele>
        <time>2012-05-10T09:32:58Z</time>
      </trkpt>
      <trkpt lat="43.8964" lon="7.14953">
        <ele>1548</ele>
        <time>2012-05-10T09:33:13Z</time>
      </trkpt>
      <trkpt lat="43.89641" lon="7.14958">
        <ele>1545</ele>
        <time>2012-05-10T09:33:44Z</time>
      </trkpt>
      <trkpt lat="43.8964" lon="7.14965">
        <ele>1544</ele>
        <time>2012-05-10T09:33:49Z</time>
      </trkpt>
      <trkpt lat="43.89641" lon="7.14969">
        <ele>1544</ele>
        <time>2012-05-10T09:33:55Z</time>
      </trkpt>
      <trkpt lat="43.89639" lon="7.14975">
        <ele>1544</ele>
        <time>2012-05-10T09:34:02Z</time>
      </trkpt>
      <trkpt lat="43.89638" lon="7.14978">
        <ele>1544</ele>
        <time>2012-05-10T09:34:07Z</time>
      </trkpt>
      <trkpt lat="43.89641" lon="7.14984">
        <ele>1543</ele>
        <time>2012-05-10T09:34:16Z</time>
      </trkpt>
      <trkpt lat="43.89646" lon="7.14984">
        <ele>1539</ele>
        <time>2012-05-10T09:34:23Z</time>
      </trkpt>
      <trkpt lat="43.89648" lon="7.14988">
        <ele>1539</ele>
        <time>2012-05-10T09:34:43Z</time>
      </trkpt>
      <trkpt lat="43.89643" lon="7.14993">
        <ele>1539</ele>
        <time>2012-05-10T09:34:48Z</time>
      </trkpt>
      <trkpt lat="43.89641" lon="7.14999">
        <ele>1537</ele>
        <time>2012-05-10T09:34:54Z</time>
      </trkpt>
      <trkpt lat="43.89639" lon="7.15006">
        <ele>1537</ele>
        <time>2012-05-10T09:35:01Z</time>
      </trkpt>
      <trkpt lat="43.89635" lon="7.1501">
        <ele>1537</ele>
        <time>2012-05-10T09:35:07Z</time>
      </trkpt>
      <trkpt lat="43.89626" lon="7.15018">
        <ele>1539</ele>
        <time>2012-05-10T09:35:13Z</time>
      </trkpt>
      <trkpt lat="43.89622" lon="7.15023">
        <ele>1539</ele>
        <time>2012-05-10T09:35:17Z</time>
      </trkpt>
      <trkpt lat="43.89619" lon="7.15029">
        <ele>1538</ele>
        <time>2012-05-10T09:35:23Z</time>
      </trkpt>
      <trkpt lat="43.89619" lon="7.15036">
        <ele>1538</ele>
        <time>2012-05-10T09:35:29Z</time>
      </trkpt>
      <trkpt lat="43.89616" lon="7.15041">
        <ele>1538</ele>
        <time>2012-05-10T09:35:34Z</time>
      </trkpt>
      <trkpt lat="43.89602" lon="7.15062">
        <ele>1534</ele>
        <time>2012-05-10T09:35:54Z</time>
      </trkpt>
      <trkpt lat="43.89591" lon="7.15087">
        <ele>1538</ele>
        <time>2012-05-10T09:36:15Z</time>
      </trkpt>
      <trkpt lat="43.89584" lon="7.15097">
        <ele>1537</ele>
        <time>2012-05-10T09:36:23Z</time>
      </trkpt>
      <trkpt lat="43.89581" lon="7.15103">
        <ele>1536</ele>
        <time>2012-05-10T09:36:28Z</time>
      </trkpt>
      <trkpt lat="43.89573" lon="7.15113">
        <ele>1537</ele>
        <time>2012-05-10T09:36:38Z</time>
      </trkpt>
      <trkpt lat="43.89567" lon="7.15123">
        <ele>1537</ele>
        <time>2012-05-10T09:36:46Z</time>
      </trkpt>
      <trkpt lat="43.89553" lon="7.15136">
        <ele>1534</ele>
        <time>2012-05-10T09:37:02Z</time>
      </trkpt>
      <trkpt lat="43.89549" lon="7.1514">
        <ele>1534</ele>
        <time>2012-05-10T09:37:06Z</time>
      </trkpt>
      <trkpt lat="43.89545" lon="7.15145">
        <ele>1533</ele>
        <time>2012-05-10T09:37:12Z</time>
      </trkpt>
      <trkpt lat="43.89543" lon="7.1515">
        <ele>1533</ele>
        <time>2012-05-10T09:37:17Z</time>
      </trkpt>
      <trkpt lat="43.89541" lon="7.15157">
        <ele>1534</ele>
        <time>2012-05-10T09:37:25Z</time>
      </trkpt>
      <trkpt lat="43.89538" lon="7.15162">
        <ele>1535</ele>
        <time>2012-05-10T09:37:29Z</time>
      </trkpt>
      <trkpt lat="43.89531" lon="7.1518">
        <ele>1539</ele>
        <time>2012-05-10T09:37:44Z</time>
      </trkpt>
      <trkpt lat="43.89528" lon="7.15186">
        <ele>1539</ele>
        <time>2012-05-10T09:37:50Z</time>
      </trkpt>
      <trkpt lat="43.89523" lon="7.15197">
        <ele>1540</ele>
        <time>2012-05-10T09:38:01Z</time>
      </trkpt>
      <trkpt lat="43.89517" lon="7.15217">
        <ele>1540</ele>
        <time>2012-05-10T09:38:18Z</time>
      </trkpt>
      <trkpt lat="43.89513" lon="7.15221">
        <ele>1540</ele>
        <time>2012-05-10T09:38:23Z</time>
      </trkpt>
      <trkpt lat="43.89506" lon="7.15239">
        <ele>1539</ele>
        <time>2012-05-10T09:38:40Z</time>
      </trkpt>
      <trkpt lat="43.89501" lon="7.15242">
        <ele>1539</ele>
        <time>2012-05-10T09:38:47Z</time>
      </trkpt>
      <trkpt lat="43.89497" lon="7.1525">
        <ele>1540</ele>
        <time>2012-05-10T09:38:58Z</time>
      </trkpt>
      <trkpt lat="43.895" lon="7.15251">
        <ele>1542</ele>
        <time>2012-05-10T09:40:30Z</time>
      </trkpt>
      <trkpt lat="43.89502" lon="7.15247">
        <ele>1541</ele>
        <time>2012-05-10T09:41:09Z</time>
      </trkpt>
      <trkpt lat="43.89512" lon="7.15234">
        <ele>1535</ele>
        <time>2012-05-10T09:41:40Z</time>
      </trkpt>
      <trkpt lat="43.89513" lon="7.15231">
        <ele>1535</ele>
        <time>2012-05-10T09:41:46Z</time>
      </trkpt>
      <trkpt lat="43.89517" lon="7.15225">
        <ele>1534</ele>
        <time>2012-05-10T09:41:59Z</time>
      </trkpt>
      <trkpt lat="43.89521" lon="7.15212">
        <ele>1535</ele>
        <time>2012-05-10T09:42:07Z</time>
      </trkpt>
      <trkpt lat="43.89524" lon="7.15205">
        <ele>1535</ele>
        <time>2012-05-10T09:42:13Z</time>
      </trkpt>
      <trkpt lat="43.8953" lon="7.15195">
        <ele>1536</ele>
        <time>2012-05-10T09:42:29Z</time>
      </trkpt>
      <trkpt lat="43.89532" lon="7.15187">
        <ele>1536</ele>
        <time>2012-05-10T09:42:33Z</time>
      </trkpt>
      <trkpt lat="43.89534" lon="7.1518">
        <ele>1536</ele>
        <time>2012-05-10T09:42:37Z</time>
      </trkpt>
      <trkpt lat="43.89536" lon="7.15174">
        <ele>1536</ele>
        <time>2012-05-10T09:42:41Z</time>
      </trkpt>
      <trkpt lat="43.89539" lon="7.15168">
        <ele>1537</ele>
        <time>2012-05-10T09:42:46Z</time>
      </trkpt>
      <trkpt lat="43.89541" lon="7.15161">
        <ele>1537</ele>
        <time>2012-05-10T09:42:51Z</time>
      </trkpt>
      <trkpt lat="43.89543" lon="7.15154">
        <ele>1537</ele>
        <time>2012-05-10T09:42:56Z</time>
      </trkpt>
      <trkpt lat="43.89547" lon="7.1515">
        <ele>1535</ele>
        <time>2012-05-10T09:43:02Z</time>
      </trkpt>
      <trkpt lat="43.89549" lon="7.15152">
        <ele>1533</ele>
        <time>2012-05-10T09:43:13Z</time>
      </trkpt>
      <trkpt lat="43.89552" lon="7.15158">
        <ele>1528</ele>
        <time>2012-05-10T09:43:27Z</time>
      </trkpt>
      <trkpt lat="43.89551" lon="7.15164">
        <ele>1527</ele>
        <time>2012-05-10T09:43:35Z</time>
      </trkpt>
      <trkpt lat="43.89553" lon="7.15168">
        <ele>1526</ele>
        <time>2012-05-10T09:43:46Z</time>
      </trkpt>
      <trkpt lat="43.89559" lon="7.15168">
        <ele>1526</ele>
        <time>2012-05-10T09:43:55Z</time>
      </trkpt>
      <trkpt lat="43.8956" lon="7.15174">
        <ele>1525</ele>
        <time>2012-05-10T09:44:04Z</time>
      </trkpt>
      <trkpt lat="43.89565" lon="7.15179">
        <ele>1523</ele>
        <time>2012-05-10T09:44:14Z</time>
      </trkpt>
      <trkpt lat="43.89566" lon="7.15186">
        <ele>1519</ele>
        <time>2012-05-10T09:44:21Z</time>
      </trkpt>
      <trkpt lat="43.89564" lon="7.15191">
        <ele>1518</ele>
        <time>2012-05-10T09:44:29Z</time>
      </trkpt>
      <trkpt lat="43.89562" lon="7.15198">
        <ele>1520</ele>
        <time>2012-05-10T09:44:35Z</time>
      </trkpt>
      <trkpt lat="43.89562" lon="7.15204">
        <ele>1519</ele>
        <time>2012-05-10T09:44:43Z</time>
      </trkpt>
      <trkpt lat="43.89558" lon="7.15209">
        <ele>1521</ele>
        <time>2012-05-10T09:44:50Z</time>
      </trkpt>
      <trkpt lat="43.89555" lon="7.15223">
        <ele>1521</ele>
        <time>2012-05-10T09:45:00Z</time>
      </trkpt>
      <trkpt lat="43.8955" lon="7.15236">
        <ele>1523</ele>
        <time>2012-05-10T09:45:08Z</time>
      </trkpt>
      <trkpt lat="43.8955" lon="7.15243">
        <ele>1523</ele>
        <time>2012-05-10T09:45:17Z</time>
      </trkpt>
      <trkpt lat="43.89549" lon="7.15251">
        <ele>1522</ele>
        <time>2012-05-10T09:45:22Z</time>
      </trkpt>
      <trkpt lat="43.89547" lon="7.15257">
        <ele>1520</ele>
        <time>2012-05-10T09:45:28Z</time>
      </trkpt>
      <trkpt lat="43.89549" lon="7.15278">
        <ele>1512</ele>
        <time>2012-05-10T09:45:46Z</time>
      </trkpt>
      <trkpt lat="43.8955" lon="7.15285">
        <ele>1511</ele>
        <time>2012-05-10T09:45:51Z</time>
      </trkpt>
      <trkpt lat="43.89547" lon="7.15299">
        <ele>1509</ele>
        <time>2012-05-10T09:46:04Z</time>
      </trkpt>
      <trkpt lat="43.89546" lon="7.15306">
        <ele>1509</ele>
        <time>2012-05-10T09:46:10Z</time>
      </trkpt>
      <trkpt lat="43.89546" lon="7.15313">
        <ele>1508</ele>
        <time>2012-05-10T09:46:16Z</time>
      </trkpt>
      <trkpt lat="43.89544" lon="7.1532">
        <ele>1506</ele>
        <time>2012-05-10T09:46:23Z</time>
      </trkpt>
      <trkpt lat="43.89541" lon="7.15333">
        <ele>1505</ele>
        <time>2012-05-10T09:46:36Z</time>
      </trkpt>
      <trkpt lat="43.89539" lon="7.15335">
        <ele>1505</ele>
        <time>2012-05-10T09:46:42Z</time>
      </trkpt>
      <trkpt lat="43.89529" lon="7.15366">
        <ele>1503</ele>
        <time>2012-05-10T09:47:14Z</time>
      </trkpt>
      <trkpt lat="43.89533" lon="7.1537">
        <ele>1503</ele>
        <time>2012-05-10T09:47:19Z</time>
      </trkpt>
      <trkpt lat="43.89538" lon="7.1537">
        <ele>1500</ele>
        <time>2012-05-10T09:47:25Z</time>
      </trkpt>
      <trkpt lat="43.89535" lon="7.15377">
        <ele>1499</ele>
        <time>2012-05-10T09:47:58Z</time>
      </trkpt>
      <trkpt lat="43.89539" lon="7.15382">
        <ele>1498</ele>
        <time>2012-05-10T09:48:13Z</time>
      </trkpt>
      <trkpt lat="43.89545" lon="7.15378">
        <ele>1494</ele>
        <time>2012-05-10T09:48:25Z</time>
      </trkpt>
      <trkpt lat="43.89546" lon="7.15385">
        <ele>1494</ele>
        <time>2012-05-10T09:48:32Z</time>
      </trkpt>
      <trkpt lat="43.8955" lon="7.154">
        <ele>1489</ele>
        <time>2012-05-10T09:48:57Z</time>
      </trkpt>
      <trkpt lat="43.89555" lon="7.15395">
        <ele>1489</ele>
        <time>2012-05-10T09:49:03Z</time>
      </trkpt>
      <trkpt lat="43.89579" lon="7.15379">
        <ele>1481</ele>
        <time>2012-05-10T09:49:38Z</time>
      </trkpt>
      <trkpt lat="43.89584" lon="7.15379">
        <ele>1481</ele>
        <time>2012-05-10T09:49:43Z</time>
      </trkpt>
      <trkpt lat="43.89592" lon="7.15372">
        <ele>1479</ele>
        <time>2012-05-10T09:49:53Z</time>
      </trkpt>
      <trkpt lat="43.89588" lon="7.15375">
        <ele>1478</ele>
        <time>2012-05-10T09:50:03Z</time>
      </trkpt>
      <trkpt lat="43.89589" lon="7.15381">
        <ele>1477</ele>
        <time>2012-05-10T09:50:09Z</time>
      </trkpt>
      <trkpt lat="43.89583" lon="7.15384">
        <ele>1478</ele>
        <time>2012-05-10T09:50:22Z</time>
      </trkpt>
      <trkpt lat="43.89575" lon="7.15393">
        <ele>1478</ele>
        <time>2012-05-10T09:50:34Z</time>
      </trkpt>
      <trkpt lat="43.89577" lon="7.154">
        <ele>1478</ele>
        <time>2012-05-10T09:50:44Z</time>
      </trkpt>
      <trkpt lat="43.89582" lon="7.154">
        <ele>1476</ele>
        <time>2012-05-10T09:50:48Z</time>
      </trkpt>
      <trkpt lat="43.89587" lon="7.15403">
        <ele>1476</ele>
        <time>2012-05-10T09:50:51Z</time>
      </trkpt>
      <trkpt lat="43.89589" lon="7.15399">
        <ele>1475</ele>
        <time>2012-05-10T09:50:58Z</time>
      </trkpt>
      <trkpt lat="43.89598" lon="7.1539">
        <ele>1470</ele>
        <time>2012-05-10T09:51:14Z</time>
      </trkpt>
      <trkpt lat="43.89603" lon="7.15391">
        <ele>1470</ele>
        <time>2012-05-10T09:51:17Z</time>
      </trkpt>
      <trkpt lat="43.89615" lon="7.15387">
        <ele>1465</ele>
        <time>2012-05-10T09:51:42Z</time>
      </trkpt>
      <trkpt lat="43.89613" lon="7.15393">
        <ele>1464</ele>
        <time>2012-05-10T09:51:48Z</time>
      </trkpt>
      <trkpt lat="43.89613" lon="7.154">
        <ele>1464</ele>
        <time>2012-05-10T09:51:53Z</time>
      </trkpt>
      <trkpt lat="43.89605" lon="7.1541">
        <ele>1460</ele>
        <time>2012-05-10T09:52:02Z</time>
      </trkpt>
      <trkpt lat="43.89601" lon="7.15413">
        <ele>1459</ele>
        <time>2012-05-10T09:52:05Z</time>
      </trkpt>
      <trkpt lat="43.89595" lon="7.15413">
        <ele>1457</ele>
        <time>2012-05-10T09:52:11Z</time>
      </trkpt>
      <trkpt lat="43.89592" lon="7.1542">
        <ele>1456</ele>
        <time>2012-05-10T09:52:16Z</time>
      </trkpt>
      <trkpt lat="43.89589" lon="7.15426">
        <ele>1455</ele>
        <time>2012-05-10T09:52:20Z</time>
      </trkpt>
      <trkpt lat="43.89589" lon="7.15433">
        <ele>1455</ele>
        <time>2012-05-10T09:52:28Z</time>
      </trkpt>
      <trkpt lat="43.89593" lon="7.15439">
        <ele>1457</ele>
        <time>2012-05-10T09:52:31Z</time>
      </trkpt>
      <trkpt lat="43.89598" lon="7.15441">
        <ele>1459</ele>
        <time>2012-05-10T09:52:36Z</time>
      </trkpt>
      <trkpt lat="43.896" lon="7.15439">
        <ele>1458</ele>
        <time>2012-05-10T09:52:43Z</time>
      </trkpt>
      <trkpt lat="43.89605" lon="7.15436">
        <ele>1454</ele>
        <time>2012-05-10T09:52:52Z</time>
      </trkpt>
      <trkpt lat="43.89607" lon="7.15436">
        <ele>1451</ele>
        <time>2012-05-10T09:52:58Z</time>
      </trkpt>
      <trkpt lat="43.89617" lon="7.1544">
        <ele>1448</ele>
        <time>2012-05-10T09:53:10Z</time>
      </trkpt>
      <trkpt lat="43.89621" lon="7.15437">
        <ele>1447</ele>
        <time>2012-05-10T09:53:15Z</time>
      </trkpt>
      <trkpt lat="43.89626" lon="7.15439">
        <ele>1447</ele>
        <time>2012-05-10T09:53:19Z</time>
      </trkpt>
      <trkpt lat="43.89631" lon="7.15436">
        <ele>1445</ele>
        <time>2012-05-10T09:53:27Z</time>
      </trkpt>
      <trkpt lat="43.89636" lon="7.15439">
        <ele>1444</ele>
        <time>2012-05-10T09:53:31Z</time>
      </trkpt>
      <trkpt lat="43.89647" lon="7.15461">
        <ele>1436</ele>
        <time>2012-05-10T09:53:59Z</time>
      </trkpt>
      <trkpt lat="43.89653" lon="7.15483">
        <ele>1429</ele>
        <time>2012-05-10T09:54:13Z</time>
      </trkpt>
      <trkpt lat="43.89655" lon="7.15485">
        <ele>1429</ele>
        <time>2012-05-10T09:54:19Z</time>
      </trkpt>
      <trkpt lat="43.89658" lon="7.15492">
        <ele>1427</ele>
        <time>2012-05-10T09:54:24Z</time>
      </trkpt>
      <trkpt lat="43.89662" lon="7.15497">
        <ele>1427</ele>
        <time>2012-05-10T09:54:28Z</time>
      </trkpt>
      <trkpt lat="43.89665" lon="7.15502">
        <ele>1427</ele>
        <time>2012-05-10T09:54:34Z</time>
      </trkpt>
      <trkpt lat="43.89667" lon="7.15509">
        <ele>1426</ele>
        <time>2012-05-10T09:54:40Z</time>
      </trkpt>
      <trkpt lat="43.89669" lon="7.15515">
        <ele>1426</ele>
        <time>2012-05-10T09:54:46Z</time>
      </trkpt>
      <trkpt lat="43.89668" lon="7.15523">
        <ele>1425</ele>
        <time>2012-05-10T09:54:51Z</time>
      </trkpt>
      <trkpt lat="43.89667" lon="7.15538">
        <ele>1426</ele>
        <time>2012-05-10T09:55:01Z</time>
      </trkpt>
      <trkpt lat="43.89669" lon="7.15544">
        <ele>1426</ele>
        <time>2012-05-10T09:55:08Z</time>
      </trkpt>
      <trkpt lat="43.89677" lon="7.15579">
        <ele>1418</ele>
        <time>2012-05-10T09:55:29Z</time>
      </trkpt>
      <trkpt lat="43.8968" lon="7.15592">
        <ele>1418</ele>
        <time>2012-05-10T09:55:38Z</time>
      </trkpt>
      <trkpt lat="43.89684" lon="7.15604">
        <ele>1418</ele>
        <time>2012-05-10T09:55:52Z</time>
      </trkpt>
      <trkpt lat="43.89681" lon="7.1562">
        <ele>1415</ele>
        <time>2012-05-10T09:55:58Z</time>
      </trkpt>
      <trkpt lat="43.89684" lon="7.15632">
        <ele>1413</ele>
        <time>2012-05-10T09:56:09Z</time>
      </trkpt>
      <trkpt lat="43.89684" lon="7.1564">
        <ele>1412</ele>
        <time>2012-05-10T09:56:15Z</time>
      </trkpt>
      <trkpt lat="43.89683" lon="7.15646">
        <ele>1413</ele>
        <time>2012-05-10T09:56:20Z</time>
      </trkpt>
      <trkpt lat="43.89686" lon="7.15654">
        <ele>1413</ele>
        <time>2012-05-10T09:56:26Z</time>
      </trkpt>
      <trkpt lat="43.89687" lon="7.15661">
        <ele>1415</ele>
        <time>2012-05-10T09:56:31Z</time>
      </trkpt>
      <trkpt lat="43.89691" lon="7.15675">
        <ele>1416</ele>
        <time>2012-05-10T09:56:41Z</time>
      </trkpt>
      <trkpt lat="43.89696" lon="7.15703">
        <ele>1420</ele>
        <time>2012-05-10T09:56:59Z</time>
      </trkpt>
      <trkpt lat="43.89699" lon="7.15709">
        <ele>1420</ele>
        <time>2012-05-10T09:57:04Z</time>
      </trkpt>
      <trkpt lat="43.89714" lon="7.15726">
        <ele>1415</ele>
        <time>2012-05-10T09:57:29Z</time>
      </trkpt>
      <trkpt lat="43.89719" lon="7.15728">
        <ele>1414</ele>
        <time>2012-05-10T09:58:04Z</time>
      </trkpt>
      <trkpt lat="43.89725" lon="7.15723">
        <ele>1415</ele>
        <time>2012-05-10T09:58:21Z</time>
      </trkpt>
      <trkpt lat="43.89735" lon="7.15727">
        <ele>1409</ele>
        <time>2012-05-10T09:58:30Z</time>
      </trkpt>
      <trkpt lat="43.89737" lon="7.15727">
        <ele>1409</ele>
        <time>2012-05-10T09:58:42Z</time>
      </trkpt>
      <trkpt lat="43.89745" lon="7.15734">
        <ele>1411</ele>
        <time>2012-05-10T09:58:52Z</time>
      </trkpt>
      <trkpt lat="43.89696" lon="7.15761">
        <ele>1424</ele>
        <time>2012-05-10T11:37:56Z</time>
      </trkpt>
      <trkpt lat="43.89692" lon="7.15765">
        <ele>1420</ele>
        <time>2012-05-10T11:38:08Z</time>
      </trkpt>
      <trkpt lat="43.89687" lon="7.15763">
        <ele>1416</ele>
        <time>2012-05-10T11:38:21Z</time>
      </trkpt>
      <trkpt lat="43.89683" lon="7.15761">
        <ele>1415</ele>
        <time>2012-05-10T11:38:26Z</time>
      </trkpt>
      <trkpt lat="43.89678" lon="7.15759">
        <ele>1414</ele>
        <time>2012-05-10T11:38:32Z</time>
      </trkpt>
      <trkpt lat="43.89663" lon="7.15764">
        <ele>1412</ele>
        <time>2012-05-10T11:38:45Z</time>
      </trkpt>
      <trkpt lat="43.89652" lon="7.15769">
        <ele>1412</ele>
        <time>2012-05-10T11:38:54Z</time>
      </trkpt>
      <trkpt lat="43.89648" lon="7.15774">
        <ele>1411</ele>
        <time>2012-05-10T11:38:59Z</time>
      </trkpt>
      <trkpt lat="43.89635" lon="7.15778">
        <ele>1410</ele>
        <time>2012-05-10T11:39:14Z</time>
      </trkpt>
      <trkpt lat="43.89627" lon="7.15787">
        <ele>1409</ele>
        <time>2012-05-10T11:39:23Z</time>
      </trkpt>
      <trkpt lat="43.89618" lon="7.15788">
        <ele>1408</ele>
        <time>2012-05-10T11:39:32Z</time>
      </trkpt>
      <trkpt lat="43.89593" lon="7.15809">
        <ele>1394</ele>
        <time>2012-05-10T11:40:05Z</time>
      </trkpt>
      <trkpt lat="43.89571" lon="7.15824">
        <ele>1384</ele>
        <time>2012-05-10T11:40:35Z</time>
      </trkpt>
      <trkpt lat="43.89548" lon="7.15835">
        <ele>1379</ele>
        <time>2012-05-10T11:41:03Z</time>
      </trkpt>
      <trkpt lat="43.8955" lon="7.15843">
        <ele>1377</ele>
        <time>2012-05-10T11:41:08Z</time>
      </trkpt>
      <trkpt lat="43.8955" lon="7.1585">
        <ele>1373</ele>
        <time>2012-05-10T11:41:15Z</time>
      </trkpt>
      <trkpt lat="43.89544" lon="7.15855">
        <ele>1370</ele>
        <time>2012-05-10T11:41:27Z</time>
      </trkpt>
      <trkpt lat="43.89539" lon="7.15856">
        <ele>1368</ele>
        <time>2012-05-10T11:41:33Z</time>
      </trkpt>
      <trkpt lat="43.89535" lon="7.15853">
        <ele>1367</ele>
        <time>2012-05-10T11:41:38Z</time>
      </trkpt>
      <trkpt lat="43.89532" lon="7.15857">
        <ele>1366</ele>
        <time>2012-05-10T11:41:46Z</time>
      </trkpt>
      <trkpt lat="43.89532" lon="7.15865">
        <ele>1363</ele>
        <time>2012-05-10T11:41:56Z</time>
      </trkpt>
      <trkpt lat="43.89529" lon="7.1587">
        <ele>1361</ele>
        <time>2012-05-10T11:42:03Z</time>
      </trkpt>
      <trkpt lat="43.89525" lon="7.15871">
        <ele>1361</ele>
        <time>2012-05-10T11:42:10Z</time>
      </trkpt>
      <trkpt lat="43.8952" lon="7.15867">
        <ele>1360</ele>
        <time>2012-05-10T11:42:16Z</time>
      </trkpt>
      <trkpt lat="43.89519" lon="7.15873">
        <ele>1359</ele>
        <time>2012-05-10T11:42:24Z</time>
      </trkpt>
      <trkpt lat="43.89517" lon="7.1588">
        <ele>1357</ele>
        <time>2012-05-10T11:42:32Z</time>
      </trkpt>
      <trkpt lat="43.89513" lon="7.15882">
        <ele>1357</ele>
        <time>2012-05-10T11:42:39Z</time>
      </trkpt>
      <trkpt lat="43.89508" lon="7.1588">
        <ele>1355</ele>
        <time>2012-05-10T11:42:43Z</time>
      </trkpt>
      <trkpt lat="43.89503" lon="7.15873">
        <ele>1352</ele>
        <time>2012-05-10T11:42:54Z</time>
      </trkpt>
      <trkpt lat="43.89498" lon="7.15874">
        <ele>1350</ele>
        <time>2012-05-10T11:42:58Z</time>
      </trkpt>
      <trkpt lat="43.89494" lon="7.15877">
        <ele>1350</ele>
        <time>2012-05-10T11:43:02Z</time>
      </trkpt>
      <trkpt lat="43.89491" lon="7.15882">
        <ele>1351</ele>
        <time>2012-05-10T11:43:08Z</time>
      </trkpt>
      <trkpt lat="43.89487" lon="7.15887">
        <ele>1352</ele>
        <time>2012-05-10T11:43:14Z</time>
      </trkpt>
      <trkpt lat="43.89482" lon="7.15899">
        <ele>1351</ele>
        <time>2012-05-10T11:43:25Z</time>
      </trkpt>
      <trkpt lat="43.89478" lon="7.15903">
        <ele>1351</ele>
        <time>2012-05-10T11:43:29Z</time>
      </trkpt>
      <trkpt lat="43.89468" lon="7.1591">
        <ele>1351</ele>
        <time>2012-05-10T11:43:38Z</time>
      </trkpt>
      <trkpt lat="43.89459" lon="7.15913">
        <ele>1350</ele>
        <time>2012-05-10T11:43:53Z</time>
      </trkpt>
      <trkpt lat="43.89457" lon="7.15916">
        <ele>1350</ele>
        <time>2012-05-10T11:44:00Z</time>
      </trkpt>
      <trkpt lat="43.89456" lon="7.15923">
        <ele>1350</ele>
        <time>2012-05-10T11:44:09Z</time>
      </trkpt>
      <trkpt lat="43.89456" lon="7.15926">
        <ele>1350</ele>
        <time>2012-05-10T11:44:15Z</time>
      </trkpt>
      <trkpt lat="43.89454" lon="7.15929">
        <ele>1349</ele>
        <time>2012-05-10T11:44:25Z</time>
      </trkpt>
      <trkpt lat="43.8945" lon="7.15934">
        <ele>1349</ele>
        <time>2012-05-10T11:44:33Z</time>
      </trkpt>
      <trkpt lat="43.8945" lon="7.15941">
        <ele>1349</ele>
        <time>2012-05-10T11:44:39Z</time>
      </trkpt>
      <trkpt lat="43.8945" lon="7.15948">
        <ele>1348</ele>
        <time>2012-05-10T11:44:45Z</time>
      </trkpt>
      <trkpt lat="43.89452" lon="7.15955">
        <ele>1347</ele>
        <time>2012-05-10T11:44:50Z</time>
      </trkpt>
      <trkpt lat="43.89457" lon="7.15958">
        <ele>1347</ele>
        <time>2012-05-10T11:44:53Z</time>
      </trkpt>
      <trkpt lat="43.8946" lon="7.15964">
        <ele>1345</ele>
        <time>2012-05-10T11:44:57Z</time>
      </trkpt>
      <trkpt lat="43.89459" lon="7.15971">
        <ele>1345</ele>
        <time>2012-05-10T11:45:03Z</time>
      </trkpt>
      <trkpt lat="43.89456" lon="7.15985">
        <ele>1344</ele>
        <time>2012-05-10T11:45:10Z</time>
      </trkpt>
      <trkpt lat="43.89455" lon="7.15992">
        <ele>1342</ele>
        <time>2012-05-10T11:45:18Z</time>
      </trkpt>
      <trkpt lat="43.89451" lon="7.15995">
        <ele>1340</ele>
        <time>2012-05-10T11:45:29Z</time>
      </trkpt>
      <trkpt lat="43.89453" lon="7.16001">
        <ele>1340</ele>
        <time>2012-05-10T11:45:36Z</time>
      </trkpt>
      <trkpt lat="43.89451" lon="7.16007">
        <ele>1339</ele>
        <time>2012-05-10T11:45:43Z</time>
      </trkpt>
      <trkpt lat="43.89448" lon="7.16012">
        <ele>1337</ele>
        <time>2012-05-10T11:45:47Z</time>
      </trkpt>
      <trkpt lat="43.89431" lon="7.16045">
        <ele>1328</ele>
        <time>2012-05-10T11:46:20Z</time>
      </trkpt>
      <trkpt lat="43.89424" lon="7.16058">
        <ele>1327</ele>
        <time>2012-05-10T11:46:32Z</time>
      </trkpt>
      <trkpt lat="43.89424" lon="7.16078">
        <ele>1323</ele>
        <time>2012-05-10T11:46:49Z</time>
      </trkpt>
      <trkpt lat="43.89422" lon="7.16084">
        <ele>1323</ele>
        <time>2012-05-10T11:46:54Z</time>
      </trkpt>
      <trkpt lat="43.89426" lon="7.16113">
        <ele>1317</ele>
        <time>2012-05-10T11:47:17Z</time>
      </trkpt>
      <trkpt lat="43.8942" lon="7.16125">
        <ele>1315</ele>
        <time>2012-05-10T11:47:29Z</time>
      </trkpt>
      <trkpt lat="43.89419" lon="7.16138">
        <ele>1310</ele>
        <time>2012-05-10T11:47:41Z</time>
      </trkpt>
      <trkpt lat="43.89416" lon="7.16145">
        <ele>1308</ele>
        <time>2012-05-10T11:47:48Z</time>
      </trkpt>
      <trkpt lat="43.89416" lon="7.16152">
        <ele>1308</ele>
        <time>2012-05-10T11:47:52Z</time>
      </trkpt>
      <trkpt lat="43.89415" lon="7.1616">
        <ele>1309</ele>
        <time>2012-05-10T11:47:56Z</time>
      </trkpt>
      <trkpt lat="43.89394" lon="7.16199">
        <ele>1300</ele>
        <time>2012-05-10T11:48:27Z</time>
      </trkpt>
      <trkpt lat="43.8939" lon="7.16221">
        <ele>1298</ele>
        <time>2012-05-10T11:48:40Z</time>
      </trkpt>
      <trkpt lat="43.89393" lon="7.16227">
        <ele>1297</ele>
        <time>2012-05-10T11:48:46Z</time>
      </trkpt>
      <trkpt lat="43.89391" lon="7.16234">
        <ele>1297</ele>
        <time>2012-05-10T11:48:56Z</time>
      </trkpt>
      <trkpt lat="43.8939" lon="7.16241">
        <ele>1297</ele>
        <time>2012-05-10T11:49:03Z</time>
      </trkpt>
      <trkpt lat="43.89382" lon="7.16264">
        <ele>1289</ele>
        <time>2012-05-10T11:49:32Z</time>
      </trkpt>
      <trkpt lat="43.8938" lon="7.16278">
        <ele>1286</ele>
        <time>2012-05-10T11:49:42Z</time>
      </trkpt>
      <trkpt lat="43.8938" lon="7.16285">
        <ele>1286</ele>
        <time>2012-05-10T11:49:46Z</time>
      </trkpt>
      <trkpt lat="43.89382" lon="7.16291">
        <ele>1286</ele>
        <time>2012-05-10T11:49:51Z</time>
      </trkpt>
      <trkpt lat="43.89386" lon="7.16296">
        <ele>1284</ele>
        <time>2012-05-10T11:49:56Z</time>
      </trkpt>
      <trkpt lat="43.8939" lon="7.16302">
        <ele>1284</ele>
        <time>2012-05-10T11:50:00Z</time>
      </trkpt>
      <trkpt lat="43.89403" lon="7.16315">
        <ele>1280</ele>
        <time>2012-05-10T11:50:13Z</time>
      </trkpt>
      <trkpt lat="43.89411" lon="7.16326">
        <ele>1279</ele>
        <time>2012-05-10T11:50:21Z</time>
      </trkpt>
      <trkpt lat="43.89423" lon="7.16358">
        <ele>1275</ele>
        <time>2012-05-10T11:50:44Z</time>
      </trkpt>
      <trkpt lat="43.89422" lon="7.16365">
        <ele>1274</ele>
        <time>2012-05-10T11:50:49Z</time>
      </trkpt>
      <trkpt lat="43.89425" lon="7.16371">
        <ele>1273</ele>
        <time>2012-05-10T11:50:54Z</time>
      </trkpt>
      <trkpt lat="43.89428" lon="7.16378">
        <ele>1274</ele>
        <time>2012-05-10T11:50:59Z</time>
      </trkpt>
      <trkpt lat="43.89429" lon="7.16384">
        <ele>1275</ele>
        <time>2012-05-10T11:51:03Z</time>
      </trkpt>
      <trkpt lat="43.8944" lon="7.16418">
        <ele>1262</ele>
        <time>2012-05-10T11:51:32Z</time>
      </trkpt>
      <trkpt lat="43.89443" lon="7.16422">
        <ele>1262</ele>
        <time>2012-05-10T11:51:36Z</time>
      </trkpt>
      <trkpt lat="43.89446" lon="7.16428">
        <ele>1261</ele>
        <time>2012-05-10T11:51:41Z</time>
      </trkpt>
      <trkpt lat="43.89457" lon="7.16433">
        <ele>1261</ele>
        <time>2012-05-10T11:51:49Z</time>
      </trkpt>
      <trkpt lat="43.89463" lon="7.16433">
        <ele>1261</ele>
        <time>2012-05-10T11:51:50Z</time>
      </trkpt>
      <trkpt lat="43.8946" lon="7.16441">
        <ele>1261</ele>
        <time>2012-05-10T11:51:58Z</time>
      </trkpt>
      <trkpt lat="43.89448" lon="7.16456">
        <ele>1253</ele>
        <time>2012-05-10T11:52:10Z</time>
      </trkpt>
      <trkpt lat="43.89451" lon="7.16461">
        <ele>1253</ele>
        <time>2012-05-10T11:52:14Z</time>
      </trkpt>
      <trkpt lat="43.89455" lon="7.16465">
        <ele>1254</ele>
        <time>2012-05-10T11:52:19Z</time>
      </trkpt>
      <trkpt lat="43.8946" lon="7.16478">
        <ele>1250</ele>
        <time>2012-05-10T11:52:30Z</time>
      </trkpt>
      <trkpt lat="43.8946" lon="7.16485">
        <ele>1249</ele>
        <time>2012-05-10T11:52:34Z</time>
      </trkpt>
      <trkpt lat="43.89462" lon="7.16492">
        <ele>1248</ele>
        <time>2012-05-10T11:52:41Z</time>
      </trkpt>
      <trkpt lat="43.8948" lon="7.1652">
        <ele>1241</ele>
        <time>2012-05-10T11:53:04Z</time>
      </trkpt>
      <trkpt lat="43.89481" lon="7.16531">
        <ele>1241</ele>
        <time>2012-05-10T11:53:14Z</time>
      </trkpt>
      <trkpt lat="43.89484" lon="7.1653">
        <ele>1241</ele>
        <time>2012-05-10T11:53:26Z</time>
      </trkpt>
      <trkpt lat="43.89485" lon="7.16533">
        <ele>1241</ele>
        <time>2012-05-10T11:54:42Z</time>
      </trkpt>
      <trkpt lat="43.89484" lon="7.16535">
        <ele>1244</ele>
        <time>2012-05-10T11:56:20Z</time>
      </trkpt>
      <trkpt lat="43.89479" lon="7.16539">
        <ele>1244</ele>
        <time>2012-05-10T11:56:25Z</time>
      </trkpt>
      <trkpt lat="43.89464" lon="7.16556">
        <ele>1239</ele>
        <time>2012-05-10T11:56:46Z</time>
      </trkpt>
      <trkpt lat="43.89459" lon="7.16559">
        <ele>1239</ele>
        <time>2012-05-10T11:56:51Z</time>
      </trkpt>
      <trkpt lat="43.89449" lon="7.16563">
        <ele>1240</ele>
        <time>2012-05-10T11:56:59Z</time>
      </trkpt>
      <trkpt lat="43.89446" lon="7.16569">
        <ele>1240</ele>
        <time>2012-05-10T11:57:05Z</time>
      </trkpt>
      <trkpt lat="43.89441" lon="7.16571">
        <ele>1239</ele>
        <time>2012-05-10T11:57:11Z</time>
      </trkpt>
      <trkpt lat="43.89437" lon="7.16572">
        <ele>1239</ele>
        <time>2012-05-10T11:57:15Z</time>
      </trkpt>
      <trkpt lat="43.89426" lon="7.16584">
        <ele>1236</ele>
        <time>2012-05-10T11:57:32Z</time>
      </trkpt>
      <trkpt lat="43.89424" lon="7.1659">
        <ele>1237</ele>
        <time>2012-05-10T11:57:40Z</time>
      </trkpt>
      <trkpt lat="43.89411" lon="7.16602">
        <ele>1234</ele>
        <time>2012-05-10T11:57:53Z</time>
      </trkpt>
      <trkpt lat="43.8941" lon="7.1661">
        <ele>1233</ele>
        <time>2012-05-10T11:58:00Z</time>
      </trkpt>
      <trkpt lat="43.89409" lon="7.16617">
        <ele>1231</ele>
        <time>2012-05-10T11:58:05Z</time>
      </trkpt>
      <trkpt lat="43.89405" lon="7.16619">
        <ele>1229</ele>
        <time>2012-05-10T11:58:16Z</time>
      </trkpt>
      <trkpt lat="43.89406" lon="7.16625">
        <ele>1228</ele>
        <time>2012-05-10T11:58:22Z</time>
      </trkpt>
      <trkpt lat="43.89403" lon="7.16628">
        <ele>1226</ele>
        <time>2012-05-10T11:58:30Z</time>
      </trkpt>
      <trkpt lat="43.89402" lon="7.16635">
        <ele>1226</ele>
        <time>2012-05-10T12:01:14Z</time>
      </trkpt>
      <trkpt lat="43.89397" lon="7.16639">
        <ele>1227</ele>
        <time>2012-05-10T12:01:18Z</time>
      </trkpt>
      <trkpt lat="43.89389" lon="7.16647">
        <ele>1226</ele>
        <time>2012-05-10T12:01:29Z</time>
      </trkpt>
      <trkpt lat="43.89387" lon="7.16654">
        <ele>1225</ele>
        <time>2012-05-10T12:01:34Z</time>
      </trkpt>
      <trkpt lat="43.89385" lon="7.16668">
        <ele>1231</ele>
        <time>2012-05-10T12:01:46Z</time>
      </trkpt>
      <trkpt lat="43.89379" lon="7.1668">
        <ele>1234</ele>
        <time>2012-05-10T12:01:58Z</time>
      </trkpt>
      <trkpt lat="43.89373" lon="7.16695">
        <ele>1232</ele>
        <time>2012-05-10T12:02:08Z</time>
      </trkpt>
      <trkpt lat="43.8937" lon="7.16701">
        <ele>1232</ele>
        <time>2012-05-10T12:02:12Z</time>
      </trkpt>
      <trkpt lat="43.89368" lon="7.16708">
        <ele>1233</ele>
        <time>2012-05-10T12:02:19Z</time>
      </trkpt>
      <trkpt lat="43.89365" lon="7.16713">
        <ele>1233</ele>
        <time>2012-05-10T12:02:24Z</time>
      </trkpt>
      <trkpt lat="43.89361" lon="7.16717">
        <ele>1233</ele>
        <time>2012-05-10T12:02:32Z</time>
      </trkpt>
      <trkpt lat="43.89357" lon="7.16714">
        <ele>1234</ele>
        <time>2012-05-10T12:02:42Z</time>
      </trkpt>
      <trkpt lat="43.89353" lon="7.16718">
        <ele>1234</ele>
        <time>2012-05-10T12:02:47Z</time>
      </trkpt>
      <trkpt lat="43.89349" lon="7.16722">
        <ele>1236</ele>
        <time>2012-05-10T12:02:50Z</time>
      </trkpt>
      <trkpt lat="43.89344" lon="7.16722">
        <ele>1238</ele>
        <time>2012-05-10T12:02:54Z</time>
      </trkpt>
      <trkpt lat="43.89341" lon="7.16718">
        <ele>1239</ele>
        <time>2012-05-10T12:03:00Z</time>
      </trkpt>
      <trkpt lat="43.89337" lon="7.16714">
        <ele>1240</ele>
        <time>2012-05-10T12:03:06Z</time>
      </trkpt>
      <trkpt lat="43.89333" lon="7.16711">
        <ele>1239</ele>
        <time>2012-05-10T12:03:10Z</time>
      </trkpt>
      <trkpt lat="43.89322" lon="7.1671">
        <ele>1239</ele>
        <time>2012-05-10T12:03:17Z</time>
      </trkpt>
      <trkpt lat="43.89312" lon="7.16715">
        <ele>1238</ele>
        <time>2012-05-10T12:03:25Z</time>
      </trkpt>
      <trkpt lat="43.89302" lon="7.16715">
        <ele>1238</ele>
        <time>2012-05-10T12:03:33Z</time>
      </trkpt>
      <trkpt lat="43.89292" lon="7.16716">
        <ele>1239</ele>
        <time>2012-05-10T12:03:42Z</time>
      </trkpt>
      <trkpt lat="43.89283" lon="7.16723">
        <ele>1239</ele>
        <time>2012-05-10T12:03:52Z</time>
      </trkpt>
      <trkpt lat="43.89281" lon="7.16729">
        <ele>1239</ele>
        <time>2012-05-10T12:03:56Z</time>
      </trkpt>
      <trkpt lat="43.89263" lon="7.16746">
        <ele>1238</ele>
        <time>2012-05-10T12:04:14Z</time>
      </trkpt>
      <trkpt lat="43.89259" lon="7.16747">
        <ele>1238</ele>
        <time>2012-05-10T12:04:20Z</time>
      </trkpt>
      <trkpt lat="43.89255" lon="7.16752">
        <ele>1237</ele>
        <time>2012-05-10T12:04:25Z</time>
      </trkpt>
      <trkpt lat="43.89251" lon="7.16756">
        <ele>1236</ele>
        <time>2012-05-10T12:04:29Z</time>
      </trkpt>
      <trkpt lat="43.89247" lon="7.16759">
        <ele>1236</ele>
        <time>2012-05-10T12:04:33Z</time>
      </trkpt>
      <trkpt lat="43.89242" lon="7.16761">
        <ele>1236</ele>
        <time>2012-05-10T12:04:38Z</time>
      </trkpt>
      <trkpt lat="43.89224" lon="7.16776">
        <ele>1232</ele>
        <time>2012-05-10T12:04:58Z</time>
      </trkpt>
      <trkpt lat="43.8922" lon="7.16788">
        <ele>1231</ele>
        <time>2012-05-10T12:05:06Z</time>
      </trkpt>
      <trkpt lat="43.89216" lon="7.16793">
        <ele>1231</ele>
        <time>2012-05-10T12:05:11Z</time>
      </trkpt>
      <trkpt lat="43.89211" lon="7.16796">
        <ele>1231</ele>
        <time>2012-05-10T12:05:15Z</time>
      </trkpt>
      <trkpt lat="43.89202" lon="7.16814">
        <ele>1235</ele>
        <time>2012-05-10T12:05:31Z</time>
      </trkpt>
      <trkpt lat="43.89198" lon="7.16819">
        <ele>1235</ele>
        <time>2012-05-10T12:05:36Z</time>
      </trkpt>
      <trkpt lat="43.89193" lon="7.16824">
        <ele>1235</ele>
        <time>2012-05-10T12:05:40Z</time>
      </trkpt>
      <trkpt lat="43.89188" lon="7.16829">
        <ele>1234</ele>
        <time>2012-05-10T12:05:44Z</time>
      </trkpt>
      <trkpt lat="43.8918" lon="7.16838">
        <ele>1235</ele>
        <time>2012-05-10T12:05:51Z</time>
      </trkpt>
      <trkpt lat="43.89176" lon="7.16841">
        <ele>1236</ele>
        <time>2012-05-10T12:05:54Z</time>
      </trkpt>
      <trkpt lat="43.89172" lon="7.16845">
        <ele>1237</ele>
        <time>2012-05-10T12:05:59Z</time>
      </trkpt>
      <trkpt lat="43.89162" lon="7.16847">
        <ele>1236</ele>
        <time>2012-05-10T12:06:09Z</time>
      </trkpt>
      <trkpt lat="43.89158" lon="7.16844">
        <ele>1237</ele>
        <time>2012-05-10T12:06:14Z</time>
      </trkpt>
      <trkpt lat="43.89158" lon="7.16848">
        <ele>1236</ele>
        <time>2012-05-10T12:06:30Z</time>
      </trkpt>
      <trkpt lat="43.89158" lon="7.16846">
        <ele>1234</ele>
        <time>2012-05-10T12:07:32Z</time>
      </trkpt>
      <trkpt lat="43.89153" lon="7.16844">
        <ele>1234</ele>
        <time>2012-05-10T12:07:36Z</time>
      </trkpt>
      <trkpt lat="43.89147" lon="7.16845">
        <ele>1234</ele>
        <time>2012-05-10T12:07:39Z</time>
      </trkpt>
      <trkpt lat="43.89142" lon="7.16848">
        <ele>1233</ele>
        <time>2012-05-10T12:07:42Z</time>
      </trkpt>
      <trkpt lat="43.89137" lon="7.16849">
        <ele>1233</ele>
        <time>2012-05-10T12:07:47Z</time>
      </trkpt>
      <trkpt lat="43.89135" lon="7.16843">
        <ele>1232</ele>
        <time>2012-05-10T12:07:51Z</time>
      </trkpt>
      <trkpt lat="43.89123" lon="7.16833">
        <ele>1233</ele>
        <time>2012-05-10T12:08:12Z</time>
      </trkpt>
      <trkpt lat="43.89122" lon="7.16825">
        <ele>1232</ele>
        <time>2012-05-10T12:08:17Z</time>
      </trkpt>
      <trkpt lat="43.89116" lon="7.16814">
        <ele>1229</ele>
        <time>2012-05-10T12:08:29Z</time>
      </trkpt>
      <trkpt lat="43.89112" lon="7.16809">
        <ele>1229</ele>
        <time>2012-05-10T12:08:35Z</time>
      </trkpt>
      <trkpt lat="43.89107" lon="7.16808">
        <ele>1229</ele>
        <time>2012-05-10T12:08:41Z</time>
      </trkpt>
      <trkpt lat="43.89103" lon="7.1681">
        <ele>1229</ele>
        <time>2012-05-10T12:08:46Z</time>
      </trkpt>
      <trkpt lat="43.89099" lon="7.16811">
        <ele>1228</ele>
        <time>2012-05-10T12:08:54Z</time>
      </trkpt>
      <trkpt lat="43.89091" lon="7.16808">
        <ele>1222</ele>
        <time>2012-05-10T12:09:13Z</time>
      </trkpt>
      <trkpt lat="43.89087" lon="7.16804">
        <ele>1218</ele>
        <time>2012-05-10T12:09:20Z</time>
      </trkpt>
      <trkpt lat="43.89077" lon="7.16803">
        <ele>1213</ele>
        <time>2012-05-10T12:09:32Z</time>
      </trkpt>
      <trkpt lat="43.89058" lon="7.16812">
        <ele>1209</ele>
        <time>2012-05-10T12:09:49Z</time>
      </trkpt>
      <trkpt lat="43.89051" lon="7.16822">
        <ele>1208</ele>
        <time>2012-05-10T12:09:57Z</time>
      </trkpt>
      <trkpt lat="43.89042" lon="7.16825">
        <ele>1208</ele>
        <time>2012-05-10T12:10:04Z</time>
      </trkpt>
      <trkpt lat="43.89037" lon="7.16828">
        <ele>1208</ele>
        <time>2012-05-10T12:10:09Z</time>
      </trkpt>
      <trkpt lat="43.89033" lon="7.16832">
        <ele>1207</ele>
        <time>2012-05-10T12:10:15Z</time>
      </trkpt>
      <trkpt lat="43.89025" lon="7.16839">
        <ele>1206</ele>
        <time>2012-05-10T12:10:24Z</time>
      </trkpt>
      <trkpt lat="43.89021" lon="7.16842">
        <ele>1207</ele>
        <time>2012-05-10T12:10:29Z</time>
      </trkpt>
      <trkpt lat="43.89016" lon="7.16844">
        <ele>1207</ele>
        <time>2012-05-10T12:10:35Z</time>
      </trkpt>
      <trkpt lat="43.89011" lon="7.16846">
        <ele>1207</ele>
        <time>2012-05-10T12:10:40Z</time>
      </trkpt>
      <trkpt lat="43.89003" lon="7.16853">
        <ele>1205</ele>
        <time>2012-05-10T12:10:51Z</time>
      </trkpt>
      <trkpt lat="43.88998" lon="7.1685">
        <ele>1203</ele>
        <time>2012-05-10T12:10:56Z</time>
      </trkpt>
      <trkpt lat="43.88993" lon="7.16853">
        <ele>1201</ele>
        <time>2012-05-10T12:11:04Z</time>
      </trkpt>
      <trkpt lat="43.88994" lon="7.16859">
        <ele>1198</ele>
        <time>2012-05-10T12:11:13Z</time>
      </trkpt>
      <trkpt lat="43.88995" lon="7.16863">
        <ele>1196</ele>
        <time>2012-05-10T12:11:20Z</time>
      </trkpt>
      <trkpt lat="43.8899" lon="7.16865">
        <ele>1196</ele>
        <time>2012-05-10T12:11:25Z</time>
      </trkpt>
      <trkpt lat="43.88986" lon="7.16869">
        <ele>1193</ele>
        <time>2012-05-10T12:11:31Z</time>
      </trkpt>
      <trkpt lat="43.88985" lon="7.16872">
        <ele>1192</ele>
        <time>2012-05-10T12:11:36Z</time>
      </trkpt>
      <trkpt lat="43.8898" lon="7.16875">
        <ele>1191</ele>
        <time>2012-05-10T12:11:40Z</time>
      </trkpt>
      <trkpt lat="43.88975" lon="7.16876">
        <ele>1190</ele>
        <time>2012-05-10T12:11:43Z</time>
      </trkpt>
      <trkpt lat="43.88972" lon="7.16881">
        <ele>1191</ele>
        <time>2012-05-10T12:11:51Z</time>
      </trkpt>
      <trkpt lat="43.8897" lon="7.16889">
        <ele>1191</ele>
        <time>2012-05-10T12:12:01Z</time>
      </trkpt>
      <trkpt lat="43.8897" lon="7.16897">
        <ele>1188</ele>
        <time>2012-05-10T12:12:04Z</time>
      </trkpt>
      <trkpt lat="43.88973" lon="7.16902">
        <ele>1185</ele>
        <time>2012-05-10T12:12:08Z</time>
      </trkpt>
      <trkpt lat="43.88979" lon="7.16902">
        <ele>1183</ele>
        <time>2012-05-10T12:12:12Z</time>
      </trkpt>
      <trkpt lat="43.88993" lon="7.16902">
        <ele>1180</ele>
        <time>2012-05-10T12:12:24Z</time>
      </trkpt>
      <trkpt lat="43.89001" lon="7.16911">
        <ele>1178</ele>
        <time>2012-05-10T12:12:33Z</time>
      </trkpt>
      <trkpt lat="43.89001" lon="7.16914">
        <ele>1176</ele>
        <time>2012-05-10T12:12:39Z</time>
      </trkpt>
      <trkpt lat="43.88996" lon="7.16914">
        <ele>1175</ele>
        <time>2012-05-10T12:12:43Z</time>
      </trkpt>
      <trkpt lat="43.88997" lon="7.16916">
        <ele>1171</ele>
        <time>2012-05-10T12:13:01Z</time>
      </trkpt>
      <trkpt lat="43.89006" lon="7.16921">
        <ele>1169</ele>
        <time>2012-05-10T12:13:12Z</time>
      </trkpt>
      <trkpt lat="43.89006" lon="7.16927">
        <ele>1163</ele>
        <time>2012-05-10T12:13:26Z</time>
      </trkpt>
      <trkpt lat="43.89009" lon="7.16931">
        <ele>1161</ele>
        <time>2012-05-10T12:13:31Z</time>
      </trkpt>
      <trkpt lat="43.89014" lon="7.1693">
        <ele>1156</ele>
        <time>2012-05-10T12:13:38Z</time>
      </trkpt>
      <trkpt lat="43.89012" lon="7.16934">
        <ele>1154</ele>
        <time>2012-05-10T12:13:50Z</time>
      </trkpt>
      <trkpt lat="43.89007" lon="7.16937">
        <ele>1154</ele>
        <time>2012-05-10T12:13:56Z</time>
      </trkpt>
      <trkpt lat="43.89005" lon="7.16943">
        <ele>1154</ele>
        <time>2012-05-10T12:14:01Z</time>
      </trkpt>
      <trkpt lat="43.89004" lon="7.16955">
        <ele>1149</ele>
        <time>2012-05-10T12:14:13Z</time>
      </trkpt>
      <trkpt lat="43.89" lon="7.16957">
        <ele>1148</ele>
        <time>2012-05-10T12:14:23Z</time>
      </trkpt>
      <trkpt lat="43.89" lon="7.16956">
        <ele>1146</ele>
        <time>2012-05-10T12:14:39Z</time>
      </trkpt>
      <trkpt lat="43.88995" lon="7.16957">
        <ele>1144</ele>
        <time>2012-05-10T12:14:47Z</time>
      </trkpt>
      <trkpt lat="43.88973" lon="7.16952">
        <ele>1135</ele>
        <time>2012-05-10T12:15:18Z</time>
      </trkpt>
      <trkpt lat="43.88959" lon="7.16964">
        <ele>1133</ele>
        <time>2012-05-10T12:15:37Z</time>
      </trkpt>
      <trkpt lat="43.88939" lon="7.16956">
        <ele>1130</ele>
        <time>2012-05-10T12:15:56Z</time>
      </trkpt>
      <trkpt lat="43.88925" lon="7.16965">
        <ele>1129</ele>
        <time>2012-05-10T12:16:02Z</time>
      </trkpt>
      <trkpt lat="43.8892" lon="7.16967">
        <ele>1129</ele>
        <time>2012-05-10T12:16:04Z</time>
      </trkpt>
      <trkpt lat="43.88918" lon="7.1696">
        <ele>1129</ele>
        <time>2012-05-10T12:16:10Z</time>
      </trkpt>
      <trkpt lat="43.88915" lon="7.16954">
        <ele>1127</ele>
        <time>2012-05-10T12:16:17Z</time>
      </trkpt>
      <trkpt lat="43.8891" lon="7.16952">
        <ele>1126</ele>
        <time>2012-05-10T12:16:24Z</time>
      </trkpt>
      <trkpt lat="43.88906" lon="7.16956">
        <ele>1125</ele>
        <time>2012-05-10T12:16:27Z</time>
      </trkpt>
      <trkpt lat="43.88901" lon="7.16956">
        <ele>1124</ele>
        <time>2012-05-10T12:16:31Z</time>
      </trkpt>
      <trkpt lat="43.88899" lon="7.16946">
        <ele>1117</ele>
        <time>2012-05-10T12:16:43Z</time>
      </trkpt>
      <trkpt lat="43.88897" lon="7.1694">
        <ele>1115</ele>
        <time>2012-05-10T12:16:50Z</time>
      </trkpt>
      <trkpt lat="43.88899" lon="7.16934">
        <ele>1114</ele>
        <time>2012-05-10T12:16:56Z</time>
      </trkpt>
      <trkpt lat="43.88903" lon="7.1692">
        <ele>1111</ele>
        <time>2012-05-10T12:17:04Z</time>
      </trkpt>
      <trkpt lat="43.8891" lon="7.16908">
        <ele>1109</ele>
        <time>2012-05-10T12:17:12Z</time>
      </trkpt>
      <trkpt lat="43.8891" lon="7.16894">
        <ele>1108</ele>
        <time>2012-05-10T12:17:23Z</time>
      </trkpt>
      <trkpt lat="43.88911" lon="7.1688">
        <ele>1104</ele>
        <time>2012-05-10T12:17:41Z</time>
      </trkpt>
      <trkpt lat="43.88911" lon="7.16874">
        <ele>1102</ele>
        <time>2012-05-10T12:17:53Z</time>
      </trkpt>
      <trkpt lat="43.88908" lon="7.16869">
        <ele>1100</ele>
        <time>2012-05-10T12:18:00Z</time>
      </trkpt>
      <trkpt lat="43.88904" lon="7.16865">
        <ele>1100</ele>
        <time>2012-05-10T12:18:04Z</time>
      </trkpt>
      <trkpt lat="43.88902" lon="7.16859">
        <ele>1101</ele>
        <time>2012-05-10T12:18:10Z</time>
      </trkpt>
      <trkpt lat="43.889" lon="7.16852">
        <ele>1101</ele>
        <time>2012-05-10T12:18:15Z</time>
      </trkpt>
      <trkpt lat="43.88897" lon="7.16838">
        <ele>1098</ele>
        <time>2012-05-10T12:18:28Z</time>
      </trkpt>
      <trkpt lat="43.88898" lon="7.16831">
        <ele>1094</ele>
        <time>2012-05-10T12:18:38Z</time>
      </trkpt>
      <trkpt lat="43.88894" lon="7.16827">
        <ele>1093</ele>
        <time>2012-05-10T12:18:44Z</time>
      </trkpt>
      <trkpt lat="43.88885" lon="7.16821">
        <ele>1090</ele>
        <time>2012-05-10T12:18:53Z</time>
      </trkpt>
      <trkpt lat="43.88884" lon="7.16829">
        <ele>1087</ele>
        <time>2012-05-10T12:18:59Z</time>
      </trkpt>
      <trkpt lat="43.8888" lon="7.16832">
        <ele>1083</ele>
        <time>2012-05-10T12:19:10Z</time>
      </trkpt>
      <trkpt lat="43.88876" lon="7.16812">
        <ele>1080</ele>
        <time>2012-05-10T12:19:27Z</time>
      </trkpt>
      <trkpt lat="43.88877" lon="7.16805">
        <ele>1079</ele>
        <time>2012-05-10T12:19:31Z</time>
      </trkpt>
      <trkpt lat="43.88875" lon="7.16799">
        <ele>1079</ele>
        <time>2012-05-10T12:19:39Z</time>
      </trkpt>
      <trkpt lat="43.88871" lon="7.16797">
        <ele>1079</ele>
        <time>2012-05-10T12:19:47Z</time>
      </trkpt>
      <trkpt lat="43.88865" lon="7.16784">
        <ele>1078</ele>
        <time>2012-05-10T12:19:58Z</time>
      </trkpt>
      <trkpt lat="43.88865" lon="7.16777">
        <ele>1079</ele>
        <time>2012-05-10T12:20:03Z</time>
      </trkpt>
      <trkpt lat="43.88862" lon="7.16772">
        <ele>1079</ele>
        <time>2012-05-10T12:20:11Z</time>
      </trkpt>
      <trkpt lat="43.88857" lon="7.1677">
        <ele>1078</ele>
        <time>2012-05-10T12:20:17Z</time>
      </trkpt>
      <trkpt lat="43.88852" lon="7.16772">
        <ele>1079</ele>
        <time>2012-05-10T12:20:20Z</time>
      </trkpt>
      <trkpt lat="43.88847" lon="7.16776">
        <ele>1081</ele>
        <time>2012-05-10T12:20:22Z</time>
      </trkpt>
      <trkpt lat="43.88842" lon="7.16775">
        <ele>1083</ele>
        <time>2012-05-10T12:20:26Z</time>
      </trkpt>
      <trkpt lat="43.88835" lon="7.16766">
        <ele>1081</ele>
        <time>2012-05-10T12:20:33Z</time>
      </trkpt>
      <trkpt lat="43.88831" lon="7.16745">
        <ele>1075</ele>
        <time>2012-05-10T12:20:52Z</time>
      </trkpt>
      <trkpt lat="43.88832" lon="7.16739">
        <ele>1075</ele>
        <time>2012-05-10T12:20:56Z</time>
      </trkpt>
      <trkpt lat="43.88825" lon="7.16718">
        <ele>1069</ele>
        <time>2012-05-10T12:21:11Z</time>
      </trkpt>
      <trkpt lat="43.8882" lon="7.16705">
        <ele>1068</ele>
        <time>2012-05-10T12:21:18Z</time>
      </trkpt>
      <trkpt lat="43.88821" lon="7.1669">
        <ele>1065</ele>
        <time>2012-05-10T12:21:26Z</time>
      </trkpt>
      <trkpt lat="43.88826" lon="7.16677">
        <ele>1062</ele>
        <time>2012-05-10T12:21:35Z</time>
      </trkpt>
      <trkpt lat="43.88824" lon="7.16669">
        <ele>1061</ele>
        <time>2012-05-10T12:21:41Z</time>
      </trkpt>
      <trkpt lat="43.88814" lon="7.16654">
        <ele>1060</ele>
        <time>2012-05-10T12:21:52Z</time>
      </trkpt>
      <trkpt lat="43.88806" lon="7.16644">
        <ele>1059</ele>
        <time>2012-05-10T12:21:59Z</time>
      </trkpt>
      <trkpt lat="43.88801" lon="7.16642">
        <ele>1059</ele>
        <time>2012-05-10T12:22:03Z</time>
      </trkpt>
      <trkpt lat="43.88798" lon="7.16635">
        <ele>1060</ele>
        <time>2012-05-10T12:22:07Z</time>
      </trkpt>
      <trkpt lat="43.88788" lon="7.16626">
        <ele>1060</ele>
        <time>2012-05-10T12:22:16Z</time>
      </trkpt>
      <trkpt lat="43.88786" lon="7.1662">
        <ele>1061</ele>
        <time>2012-05-10T12:22:22Z</time>
      </trkpt>
      <trkpt lat="43.88783" lon="7.16614">
        <ele>1060</ele>
        <time>2012-05-10T12:22:29Z</time>
      </trkpt>
      <trkpt lat="43.88779" lon="7.16609">
        <ele>1060</ele>
        <time>2012-05-10T12:22:35Z</time>
      </trkpt>
      <trkpt lat="43.88768" lon="7.16604">
        <ele>1061</ele>
        <time>2012-05-10T12:22:41Z</time>
      </trkpt>
      <trkpt lat="43.88763" lon="7.16601">
        <ele>1061</ele>
        <time>2012-05-10T12:22:45Z</time>
      </trkpt>
      <trkpt lat="43.88759" lon="7.16596">
        <ele>1060</ele>
        <time>2012-05-10T12:22:51Z</time>
      </trkpt>
      <trkpt lat="43.88757" lon="7.16591">
        <ele>1060</ele>
        <time>2012-05-10T12:22:55Z</time>
      </trkpt>
      <trkpt lat="43.8875" lon="7.1657">
        <ele>1057</ele>
        <time>2012-05-10T12:23:07Z</time>
      </trkpt>
      <trkpt lat="43.88746" lon="7.16567">
        <ele>1056</ele>
        <time>2012-05-10T12:23:10Z</time>
      </trkpt>
      <trkpt lat="43.88743" lon="7.16562">
        <ele>1056</ele>
        <time>2012-05-10T12:23:15Z</time>
      </trkpt>
      <trkpt lat="43.8874" lon="7.16558">
        <ele>1056</ele>
        <time>2012-05-10T12:23:19Z</time>
      </trkpt>
      <trkpt lat="43.88738" lon="7.16551">
        <ele>1055</ele>
        <time>2012-05-10T12:23:24Z</time>
      </trkpt>
      <trkpt lat="43.88739" lon="7.16536">
        <ele>1054</ele>
        <time>2012-05-10T12:23:31Z</time>
      </trkpt>
      <trkpt lat="43.88733" lon="7.16526">
        <ele>1050</ele>
        <time>2012-05-10T12:23:41Z</time>
      </trkpt>
      <trkpt lat="43.88729" lon="7.16522">
        <ele>1049</ele>
        <time>2012-05-10T12:23:45Z</time>
      </trkpt>
      <trkpt lat="43.88724" lon="7.16519">
        <ele>1049</ele>
        <time>2012-05-10T12:23:50Z</time>
      </trkpt>
      <trkpt lat="43.88721" lon="7.16513">
        <ele>1049</ele>
        <time>2012-05-10T12:23:54Z</time>
      </trkpt>
      <trkpt lat="43.88716" lon="7.16499">
        <ele>1048</ele>
        <time>2012-05-10T12:24:01Z</time>
      </trkpt>
      <trkpt lat="43.88713" lon="7.16493">
        <ele>1046</ele>
        <time>2012-05-10T12:24:05Z</time>
      </trkpt>
      <trkpt lat="43.88714" lon="7.16484">
        <ele>1046</ele>
        <time>2012-05-10T12:24:08Z</time>
      </trkpt>
      <trkpt lat="43.88713" lon="7.16476">
        <ele>1043</ele>
        <time>2012-05-10T12:24:13Z</time>
      </trkpt>
      <trkpt lat="43.88709" lon="7.16464">
        <ele>1039</ele>
        <time>2012-05-10T12:24:25Z</time>
      </trkpt>
      <trkpt lat="43.88704" lon="7.16459">
        <ele>1038</ele>
        <time>2012-05-10T12:24:31Z</time>
      </trkpt>
      <trkpt lat="43.88695" lon="7.16455">
        <ele>1035</ele>
        <time>2012-05-10T12:24:40Z</time>
      </trkpt>
      <trkpt lat="43.88685" lon="7.16453">
        <ele>1035</ele>
        <time>2012-05-10T12:24:47Z</time>
      </trkpt>
      <trkpt lat="43.88671" lon="7.16444">
        <ele>1034</ele>
        <time>2012-05-10T12:25:02Z</time>
      </trkpt>
      <trkpt lat="43.88667" lon="7.1643">
        <ele>1032</ele>
        <time>2012-05-10T12:25:10Z</time>
      </trkpt>
      <trkpt lat="43.88655" lon="7.16416">
        <ele>1029</ele>
        <time>2012-05-10T12:25:23Z</time>
      </trkpt>
      <trkpt lat="43.88646" lon="7.1639">
        <ele>1026</ele>
        <time>2012-05-10T12:25:39Z</time>
      </trkpt>
      <trkpt lat="43.88632" lon="7.16371">
        <ele>1025</ele>
        <time>2012-05-10T12:25:56Z</time>
      </trkpt>
      <trkpt lat="43.8862" lon="7.16357">
        <ele>1021</ele>
        <time>2012-05-10T12:26:12Z</time>
      </trkpt>
      <trkpt lat="43.88605" lon="7.1632">
        <ele>1017</ele>
        <time>2012-05-10T12:26:37Z</time>
      </trkpt>
      <trkpt lat="43.88604" lon="7.16303">
        <ele>1012</ele>
        <time>2012-05-10T12:26:47Z</time>
      </trkpt>
      <trkpt lat="43.88601" lon="7.16297">
        <ele>1010</ele>
        <time>2012-05-10T12:26:51Z</time>
      </trkpt>
      <trkpt lat="43.88592" lon="7.1629">
        <ele>1008</ele>
        <time>2012-05-10T12:26:59Z</time>
      </trkpt>
      <trkpt lat="43.88573" lon="7.16254">
        <ele>998</ele>
        <time>2012-05-10T12:27:29Z</time>
      </trkpt>
      <trkpt lat="43.8857" lon="7.16248">
        <ele>994</ele>
        <time>2012-05-10T12:27:35Z</time>
      </trkpt>
      <trkpt lat="43.88566" lon="7.16244">
        <ele>993</ele>
        <time>2012-05-10T12:27:42Z</time>
      </trkpt>
      <trkpt lat="43.88563" lon="7.16238">
        <ele>993</ele>
        <time>2012-05-10T12:27:49Z</time>
      </trkpt>
      <trkpt lat="43.88562" lon="7.16232">
        <ele>992</ele>
        <time>2012-05-10T12:27:55Z</time>
      </trkpt>
      <trkpt lat="43.88554" lon="7.1622">
        <ele>989</ele>
        <time>2012-05-10T12:28:03Z</time>
      </trkpt>
      <trkpt lat="43.88546" lon="7.16212">
        <ele>987</ele>
        <time>2012-05-10T12:28:10Z</time>
      </trkpt>
      <trkpt lat="43.88543" lon="7.16206">
        <ele>987</ele>
        <time>2012-05-10T12:28:14Z</time>
      </trkpt>
      <trkpt lat="43.88533" lon="7.16189">
        <ele>980</ele>
        <time>2012-05-10T12:28:32Z</time>
      </trkpt>
      <trkpt lat="43.88532" lon="7.16181">
        <ele>975</ele>
        <time>2012-05-10T12:29:05Z</time>
      </trkpt>
      <trkpt lat="43.88532" lon="7.16173">
        <ele>974</ele>
        <time>2012-05-10T12:29:09Z</time>
      </trkpt>
      <trkpt lat="43.88531" lon="7.16166">
        <ele>975</ele>
        <time>2012-05-10T12:29:13Z</time>
      </trkpt>
      <trkpt lat="43.88527" lon="7.1616">
        <ele>975</ele>
        <time>2012-05-10T12:29:17Z</time>
      </trkpt>
      <trkpt lat="43.88524" lon="7.16155">
        <ele>975</ele>
        <time>2012-05-10T12:29:21Z</time>
      </trkpt>
      <trkpt lat="43.88525" lon="7.16148">
        <ele>975</ele>
        <time>2012-05-10T12:29:27Z</time>
      </trkpt>
      <trkpt lat="43.88528" lon="7.16134">
        <ele>975</ele>
        <time>2012-05-10T12:29:37Z</time>
      </trkpt>
      <trkpt lat="43.88532" lon="7.1613">
        <ele>972</ele>
        <time>2012-05-10T12:29:43Z</time>
      </trkpt>
      <trkpt lat="43.88536" lon="7.16125">
        <ele>972</ele>
        <time>2012-05-10T12:29:49Z</time>
      </trkpt>
      <trkpt lat="43.8854" lon="7.16124">
        <ele>972</ele>
        <time>2012-05-10T12:29:53Z</time>
      </trkpt>
      <trkpt lat="43.88544" lon="7.16121">
        <ele>972</ele>
        <time>2012-05-10T12:29:59Z</time>
      </trkpt>
      <trkpt lat="43.88544" lon="7.16114">
        <ele>972</ele>
        <time>2012-05-10T12:30:04Z</time>
      </trkpt>
      <trkpt lat="43.88542" lon="7.16107">
        <ele>972</ele>
        <time>2012-05-10T12:30:10Z</time>
      </trkpt>
      <trkpt lat="43.88541" lon="7.16099">
        <ele>970</ele>
        <time>2012-05-10T12:30:15Z</time>
      </trkpt>
      <trkpt lat="43.88538" lon="7.16093">
        <ele>970</ele>
        <time>2012-05-10T12:30:19Z</time>
      </trkpt>
      <trkpt lat="43.88535" lon="7.16087">
        <ele>970</ele>
        <time>2012-05-10T12:30:25Z</time>
      </trkpt>
      <trkpt lat="43.88532" lon="7.16081">
        <ele>971</ele>
        <time>2012-05-10T12:30:31Z</time>
      </trkpt>
      <trkpt lat="43.88528" lon="7.16082">
        <ele>971</ele>
        <time>2012-05-10T12:30:37Z</time>
      </trkpt>
      <trkpt lat="43.88523" lon="7.16085">
        <ele>971</ele>
        <time>2012-05-10T12:30:41Z</time>
      </trkpt>
      <trkpt lat="43.88518" lon="7.16083">
        <ele>972</ele>
        <time>2012-05-10T12:30:48Z</time>
      </trkpt>
      <trkpt lat="43.88514" lon="7.16069">
        <ele>972</ele>
        <time>2012-05-10T12:30:56Z</time>
      </trkpt>
      <trkpt lat="43.88509" lon="7.16058">
        <ele>972</ele>
        <time>2012-05-10T12:31:04Z</time>
      </trkpt>
      <trkpt lat="43.88505" lon="7.16061">
        <ele>972</ele>
        <time>2012-05-10T12:31:07Z</time>
      </trkpt>
      <trkpt lat="43.885" lon="7.16064">
        <ele>972</ele>
        <time>2012-05-10T12:31:10Z</time>
      </trkpt>
      <trkpt lat="43.88495" lon="7.16064">
        <ele>971</ele>
        <time>2012-05-10T12:31:15Z</time>
      </trkpt>
      <trkpt lat="43.88485" lon="7.16065">
        <ele>972</ele>
        <time>2012-05-10T12:31:23Z</time>
      </trkpt>
      <trkpt lat="43.88481" lon="7.16063">
        <ele>971</ele>
        <time>2012-05-10T12:31:26Z</time>
      </trkpt>
      <trkpt lat="43.88467" lon="7.16056">
        <ele>964</ele>
        <time>2012-05-10T12:31:45Z</time>
      </trkpt>
      <trkpt lat="43.88466" lon="7.16048">
        <ele>962</ele>
        <time>2012-05-10T12:31:50Z</time>
      </trkpt>
      <trkpt lat="43.88464" lon="7.16041">
        <ele>962</ele>
        <time>2012-05-10T12:31:54Z</time>
      </trkpt>
      <trkpt lat="43.8846" lon="7.16036">
        <ele>963</ele>
        <time>2012-05-10T12:31:59Z</time>
      </trkpt>
      <trkpt lat="43.88457" lon="7.1603">
        <ele>963</ele>
        <time>2012-05-10T12:32:03Z</time>
      </trkpt>
      <trkpt lat="43.88455" lon="7.16024">
        <ele>963</ele>
        <time>2012-05-10T12:32:06Z</time>
      </trkpt>
      <trkpt lat="43.8845" lon="7.1602">
        <ele>963</ele>
        <time>2012-05-10T12:32:11Z</time>
      </trkpt>
      <trkpt lat="43.88446" lon="7.16016">
        <ele>963</ele>
        <time>2012-05-10T12:32:15Z</time>
      </trkpt>
      <trkpt lat="43.88433" lon="7.16007">
        <ele>961</ele>
        <time>2012-05-10T12:32:25Z</time>
      </trkpt>
      <trkpt lat="43.88429" lon="7.16002">
        <ele>961</ele>
        <time>2012-05-10T12:32:29Z</time>
      </trkpt>
      <trkpt lat="43.88414" lon="7.1598">
        <ele>959</ele>
        <time>2012-05-10T12:32:46Z</time>
      </trkpt>
      <trkpt lat="43.88405" lon="7.15946">
        <ele>953</ele>
        <time>2012-05-10T12:33:05Z</time>
      </trkpt>
      <trkpt lat="43.88406" lon="7.15938">
        <ele>952</ele>
        <time>2012-05-10T12:33:09Z</time>
      </trkpt>
      <trkpt lat="43.88406" lon="7.15931">
        <ele>952</ele>
        <time>2012-05-10T12:33:14Z</time>
      </trkpt>
      <trkpt lat="43.88401" lon="7.1592">
        <ele>949</ele>
        <time>2012-05-10T12:33:23Z</time>
      </trkpt>
      <trkpt lat="43.88388" lon="7.15896">
        <ele>945</ele>
        <time>2012-05-10T12:33:42Z</time>
      </trkpt>
      <trkpt lat="43.88388" lon="7.15888">
        <ele>944</ele>
        <time>2012-05-10T12:33:47Z</time>
      </trkpt>
      <trkpt lat="43.88385" lon="7.15882">
        <ele>943</ele>
        <time>2012-05-10T12:33:50Z</time>
      </trkpt>
      <trkpt lat="43.88381" lon="7.15876">
        <ele>943</ele>
        <time>2012-05-10T12:33:55Z</time>
      </trkpt>
      <trkpt lat="43.88379" lon="7.15863">
        <ele>944</ele>
        <time>2012-05-10T12:34:04Z</time>
      </trkpt>
      <trkpt lat="43.88375" lon="7.15849">
        <ele>942</ele>
        <time>2012-05-10T12:34:16Z</time>
      </trkpt>
      <trkpt lat="43.88366" lon="7.15809">
        <ele>932</ele>
        <time>2012-05-10T12:34:49Z</time>
      </trkpt>
      <trkpt lat="43.88365" lon="7.15794">
        <ele>929</ele>
        <time>2012-05-10T12:34:59Z</time>
      </trkpt>
      <trkpt lat="43.88357" lon="7.15776">
        <ele>925</ele>
        <time>2012-05-10T12:35:13Z</time>
      </trkpt>
      <trkpt lat="43.88356" lon="7.15769">
        <ele>925</ele>
        <time>2012-05-10T12:35:16Z</time>
      </trkpt>
      <trkpt lat="43.88353" lon="7.15756">
        <ele>925</ele>
        <time>2012-05-10T12:35:27Z</time>
      </trkpt>
      <trkpt lat="43.88351" lon="7.15749">
        <ele>924</ele>
        <time>2012-05-10T12:35:33Z</time>
      </trkpt>
      <trkpt lat="43.8835" lon="7.15742">
        <ele>924</ele>
        <time>2012-05-10T12:35:37Z</time>
      </trkpt>
      <trkpt lat="43.88349" lon="7.15735">
        <ele>923</ele>
        <time>2012-05-10T12:35:41Z</time>
      </trkpt>
      <trkpt lat="43.88353" lon="7.15732">
        <ele>921</ele>
        <time>2012-05-10T12:35:48Z</time>
      </trkpt>
      <trkpt lat="43.88355" lon="7.15726">
        <ele>918</ele>
        <time>2012-05-10T12:35:54Z</time>
      </trkpt>
      <trkpt lat="43.88354" lon="7.15719">
        <ele>916</ele>
        <time>2012-05-10T12:35:58Z</time>
      </trkpt>
      <trkpt lat="43.88345" lon="7.15685">
        <ele>910</ele>
        <time>2012-05-10T12:36:24Z</time>
      </trkpt>
      <trkpt lat="43.88343" lon="7.15679">
        <ele>910</ele>
        <time>2012-05-10T12:36:28Z</time>
      </trkpt>
      <trkpt lat="43.88335" lon="7.15669">
        <ele>911</ele>
        <time>2012-05-10T12:36:36Z</time>
      </trkpt>
      <trkpt lat="43.88332" lon="7.15663">
        <ele>911</ele>
        <time>2012-05-10T12:36:39Z</time>
      </trkpt>
      <trkpt lat="43.88332" lon="7.15655">
        <ele>910</ele>
        <time>2012-05-10T12:36:43Z</time>
      </trkpt>
      <trkpt lat="43.88321" lon="7.15622">
        <ele>906</ele>
        <time>2012-05-10T12:37:07Z</time>
      </trkpt>
      <trkpt lat="43.88318" lon="7.15616">
        <ele>906</ele>
        <time>2012-05-10T12:37:11Z</time>
      </trkpt>
      <trkpt lat="43.88301" lon="7.15573">
        <ele>899</ele>
        <time>2012-05-10T12:37:44Z</time>
      </trkpt>
      <trkpt lat="43.88299" lon="7.15567">
        <ele>900</ele>
        <time>2012-05-10T12:37:47Z</time>
      </trkpt>
      <trkpt lat="43.88296" lon="7.15562">
        <ele>902</ele>
        <time>2012-05-10T12:37:50Z</time>
      </trkpt>
      <trkpt lat="43.88293" lon="7.15556">
        <ele>903</ele>
        <time>2012-05-10T12:37:55Z</time>
      </trkpt>
      <trkpt lat="43.88292" lon="7.15549">
        <ele>898</ele>
        <time>2012-05-10T12:38:03Z</time>
      </trkpt>
      <trkpt lat="43.8828" lon="7.15525">
        <ele>886</ele>
        <time>2012-05-10T12:38:37Z</time>
      </trkpt>
      <trkpt lat="43.88276" lon="7.15521">
        <ele>886</ele>
        <time>2012-05-10T12:38:41Z</time>
      </trkpt>
      <trkpt lat="43.88268" lon="7.15511">
        <ele>876</ele>
        <time>2012-05-10T12:38:53Z</time>
      </trkpt>
      <trkpt lat="43.88266" lon="7.15503">
        <ele>874</ele>
        <time>2012-05-10T12:38:59Z</time>
      </trkpt>
      <trkpt lat="43.88266" lon="7.15481">
        <ele>869</ele>
        <time>2012-05-10T12:39:16Z</time>
      </trkpt>
      <trkpt lat="43.88261" lon="7.15478">
        <ele>868</ele>
        <time>2012-05-10T12:39:22Z</time>
      </trkpt>
      <trkpt lat="43.88256" lon="7.15479">
        <ele>868</ele>
        <time>2012-05-10T12:39:26Z</time>
      </trkpt>
      <trkpt lat="43.88241" lon="7.15478">
        <ele>870</ele>
        <time>2012-05-10T12:39:37Z</time>
      </trkpt>
      <trkpt lat="43.88237" lon="7.15471">
        <ele>871</ele>
        <time>2012-05-10T12:39:41Z</time>
      </trkpt>
      <trkpt lat="43.88236" lon="7.15463">
        <ele>870</ele>
        <time>2012-05-10T12:39:44Z</time>
      </trkpt>
      <trkpt lat="43.88233" lon="7.15456">
        <ele>871</ele>
        <time>2012-05-10T12:39:48Z</time>
      </trkpt>
      <trkpt lat="43.88232" lon="7.1545">
        <ele>871</ele>
        <time>2012-05-10T12:39:52Z</time>
      </trkpt>
      <trkpt lat="43.88233" lon="7.15436">
        <ele>869</ele>
        <time>2012-05-10T12:40:01Z</time>
      </trkpt>
      <trkpt lat="43.88232" lon="7.15428">
        <ele>870</ele>
        <time>2012-05-10T12:40:09Z</time>
      </trkpt>
      <trkpt lat="43.88233" lon="7.15421">
        <ele>870</ele>
        <time>2012-05-10T12:40:12Z</time>
      </trkpt>
      <trkpt lat="43.88231" lon="7.15415">
        <ele>871</ele>
        <time>2012-05-10T12:40:16Z</time>
      </trkpt>
      <trkpt lat="43.88226" lon="7.15413">
        <ele>870</ele>
        <time>2012-05-10T12:40:20Z</time>
      </trkpt>
      <trkpt lat="43.88221" lon="7.15412">
        <ele>869</ele>
        <time>2012-05-10T12:40:25Z</time>
      </trkpt>
      <trkpt lat="43.88217" lon="7.15418">
        <ele>868</ele>
        <time>2012-05-10T12:40:29Z</time>
      </trkpt>
      <trkpt lat="43.88211" lon="7.15436">
        <ele>861</ele>
        <time>2012-05-10T12:40:42Z</time>
      </trkpt>
      <trkpt lat="43.8821" lon="7.15443">
        <ele>861</ele>
        <time>2012-05-10T12:40:51Z</time>
      </trkpt>
      <trkpt lat="43.88204" lon="7.15454">
        <ele>858</ele>
        <time>2012-05-10T12:41:02Z</time>
      </trkpt>
      <trkpt lat="43.88203" lon="7.15462">
        <ele>853</ele>
        <time>2012-05-10T12:41:07Z</time>
      </trkpt>
      <trkpt lat="43.882" lon="7.15467">
        <ele>852</ele>
        <time>2012-05-10T12:41:11Z</time>
      </trkpt>
      <trkpt lat="43.88199" lon="7.15482">
        <ele>846</ele>
        <time>2012-05-10T12:41:20Z</time>
      </trkpt>
      <trkpt lat="43.88194" lon="7.15485">
        <ele>845</ele>
        <time>2012-05-10T12:41:24Z</time>
      </trkpt>
      <trkpt lat="43.8819" lon="7.1549">
        <ele>846</ele>
        <time>2012-05-10T12:41:28Z</time>
      </trkpt>
      <trkpt lat="43.88184" lon="7.15501">
        <ele>847</ele>
        <time>2012-05-10T12:41:38Z</time>
      </trkpt>
      <trkpt lat="43.88173" lon="7.15517">
        <ele>846</ele>
        <time>2012-05-10T12:41:47Z</time>
      </trkpt>
      <trkpt lat="43.88168" lon="7.15532">
        <ele>848</ele>
        <time>2012-05-10T12:41:55Z</time>
      </trkpt>
      <trkpt lat="43.88167" lon="7.15539">
        <ele>847</ele>
        <time>2012-05-10T12:42:00Z</time>
      </trkpt>
      <trkpt lat="43.88163" lon="7.15545">
        <ele>848</ele>
        <time>2012-05-10T12:42:05Z</time>
      </trkpt>
      <trkpt lat="43.8815" lon="7.15554">
        <ele>851</ele>
        <time>2012-05-10T12:42:12Z</time>
      </trkpt>
      <trkpt lat="43.88151" lon="7.1556">
        <ele>851</ele>
        <time>2012-05-10T12:42:16Z</time>
      </trkpt>
      <trkpt lat="43.88144" lon="7.15598">
        <ele>856</ele>
        <time>2012-05-10T12:42:37Z</time>
      </trkpt>
      <trkpt lat="43.88141" lon="7.15603">
        <ele>857</ele>
        <time>2012-05-10T12:42:40Z</time>
      </trkpt>
      <trkpt lat="43.88138" lon="7.15611">
        <ele>856</ele>
        <time>2012-05-10T12:42:44Z</time>
      </trkpt>
      <trkpt lat="43.88137" lon="7.15625">
        <ele>855</ele>
        <time>2012-05-10T12:42:53Z</time>
      </trkpt>
      <trkpt lat="43.88136" lon="7.15632">
        <ele>855</ele>
        <time>2012-05-10T12:42:59Z</time>
      </trkpt>
      <trkpt lat="43.88139" lon="7.15638">
        <ele>854</ele>
        <time>2012-05-10T12:43:01Z</time>
      </trkpt>
      <trkpt lat="43.88167" lon="7.1568">
        <ele>841</ele>
        <time>2012-05-10T12:43:35Z</time>
      </trkpt>
      <trkpt lat="43.88163" lon="7.15683">
        <ele>843</ele>
        <time>2012-05-10T12:43:50Z</time>
      </trkpt>
      <trkpt lat="43.88166" lon="7.15688">
        <ele>842</ele>
        <time>2012-05-10T12:43:55Z</time>
      </trkpt>
      <trkpt lat="43.88163" lon="7.15691">
        <ele>840</ele>
        <time>2012-05-10T12:44:07Z</time>
      </trkpt>
      <trkpt lat="43.88159" lon="7.15693">
        <ele>841</ele>
        <time>2012-05-10T12:44:11Z</time>
      </trkpt>
      <trkpt lat="43.88156" lon="7.15698">
        <ele>843</ele>
        <time>2012-05-10T12:44:34Z</time>
      </trkpt>
      <trkpt lat="43.88156" lon="7.15702">
        <ele>844</ele>
        <time>2012-05-10T12:44:41Z</time>
      </trkpt>
      <trkpt lat="43.88155" lon="7.15697">
        <ele>851</ele>
        <time>2012-05-10T12:46:35Z</time>
      </trkpt>
      <trkpt lat="43.88157" lon="7.15694">
        <ele>850</ele>
        <time>2012-05-10T12:47:10Z</time>
      </trkpt>
      <trkpt lat="43.8816" lon="7.15696">
        <ele>850</ele>
        <time>2012-05-10T12:47:30Z</time>
      </trkpt>
      <trkpt lat="43.88158" lon="7.15692">
        <ele>850</ele>
        <time>2012-05-10T12:49:04Z</time>
      </trkpt>
      <trkpt lat="43.88162" lon="7.15687">
        <ele>850</ele>
        <time>2012-05-10T12:50:00Z</time>
      </trkpt>
      <trkpt lat="43.88164" lon="7.15682">
        <ele>842</ele>
        <time>2012-05-10T12:51:14Z</time>
      </trkpt>
    </trkseg>
  </trk>
</gpx>